<?xml version="1.0" encoding="UTF-8" standalone="no" ?>
<gpx xmlns="http://www.topografix.com/GPX/1/1" xmlns:xsi="http://www.w3.org/2001/XMLSchema-instance" xsi:schemaLocation="http://www.topografix.com/GPX/1/1 http://www.topografix.com/GPX/1/1/gpx.xsd" version="1.1" creator="VisuGPX - https://www.visugpx.com">
  <metadata>
    <name>lecausse190517</name>
    <desc><![CDATA[marche Le Colombié LABRUGUIERE]]></desc>
  </metadata>
  <trk>
    <name><![CDATA[lecausse190517_1]]></name>
    <trkseg>
      <trkpt lat="43.5406" lon="2.25829">
        <ele>190</ele>
        <time>2017-05-18T13:24:08+02:00</time>
      </trkpt>
      <trkpt lat="43.5406" lon="2.25829">
        <ele>190</ele>
        <time>2017-05-18T13:24:09+02:00</time>
      </trkpt>
      <trkpt lat="43.5406" lon="2.25827">
        <ele>190</ele>
        <time>2017-05-18T13:24:33+02:00</time>
      </trkpt>
      <trkpt lat="43.54058" lon="2.25828">
        <ele>190</ele>
        <time>2017-05-18T13:24:57+02:00</time>
      </trkpt>
      <trkpt lat="43.54061" lon="2.25826">
        <ele>190</ele>
        <time>2017-05-18T13:25:11+02:00</time>
      </trkpt>
      <trkpt lat="43.5406" lon="2.25829">
        <ele>190</ele>
        <time>2017-05-18T13:25:31+02:00</time>
      </trkpt>
      <trkpt lat="43.54061" lon="2.2583">
        <ele>190</ele>
        <time>2017-05-18T13:25:57+02:00</time>
      </trkpt>
      <trkpt lat="43.54057" lon="2.25826">
        <ele>190</ele>
        <time>2017-05-18T13:26:27+02:00</time>
      </trkpt>
      <trkpt lat="43.54059" lon="2.25828">
        <ele>190</ele>
        <time>2017-05-18T13:27:00+02:00</time>
      </trkpt>
      <trkpt lat="43.54059" lon="2.25831">
        <ele>190</ele>
        <time>2017-05-18T13:27:23+02:00</time>
      </trkpt>
      <trkpt lat="43.5406" lon="2.25829">
        <ele>190</ele>
        <time>2017-05-18T13:27:45+02:00</time>
      </trkpt>
      <trkpt lat="43.54063" lon="2.25829">
        <ele>190</ele>
        <time>2017-05-18T13:28:08+02:00</time>
      </trkpt>
      <trkpt lat="43.54062" lon="2.25829">
        <ele>190</ele>
        <time>2017-05-18T13:28:13+02:00</time>
      </trkpt>
      <trkpt lat="43.54061" lon="2.25828">
        <ele>190</ele>
        <time>2017-05-18T13:28:17+02:00</time>
      </trkpt>
      <trkpt lat="43.54062" lon="2.25828">
        <ele>190</ele>
        <time>2017-05-18T13:28:39+02:00</time>
      </trkpt>
      <trkpt lat="43.54062" lon="2.25826">
        <ele>190</ele>
        <time>2017-05-18T13:28:59+02:00</time>
      </trkpt>
      <trkpt lat="43.54061" lon="2.25827">
        <ele>190</ele>
        <time>2017-05-18T13:29:23+02:00</time>
      </trkpt>
      <trkpt lat="43.54081" lon="2.25832">
        <ele>190</ele>
        <time>2017-05-18T13:29:39+02:00</time>
      </trkpt>
      <trkpt lat="43.54107" lon="2.25845">
        <ele>190</ele>
        <time>2017-05-18T13:29:48+02:00</time>
      </trkpt>
      <trkpt lat="43.54107" lon="2.2585">
        <ele>190</ele>
        <time>2017-05-18T13:29:49+02:00</time>
      </trkpt>
      <trkpt lat="43.54107" lon="2.25853">
        <ele>190</ele>
        <time>2017-05-18T13:29:50+02:00</time>
      </trkpt>
      <trkpt lat="43.54084" lon="2.25917">
        <ele>190</ele>
        <time>2017-05-18T13:29:59+02:00</time>
      </trkpt>
      <trkpt lat="43.54077" lon="2.25927">
        <ele>190</ele>
        <time>2017-05-18T13:30:00+02:00</time>
      </trkpt>
      <trkpt lat="43.54002" lon="2.2602">
        <ele>189</ele>
        <time>2017-05-18T13:30:10+02:00</time>
      </trkpt>
      <trkpt lat="43.53936" lon="2.2611">
        <ele>191</ele>
        <time>2017-05-18T13:30:21+02:00</time>
      </trkpt>
      <trkpt lat="43.53933" lon="2.26114">
        <ele>191</ele>
        <time>2017-05-18T13:30:27+02:00</time>
      </trkpt>
      <trkpt lat="43.53931" lon="2.26118">
        <ele>192</ele>
        <time>2017-05-18T13:30:28+02:00</time>
      </trkpt>
      <trkpt lat="43.53903" lon="2.26184">
        <ele>193</ele>
        <time>2017-05-18T13:30:35+02:00</time>
      </trkpt>
      <trkpt lat="43.5389" lon="2.26218">
        <ele>193</ele>
        <time>2017-05-18T13:30:38+02:00</time>
      </trkpt>
      <trkpt lat="43.53885" lon="2.26227">
        <ele>193</ele>
        <time>2017-05-18T13:30:39+02:00</time>
      </trkpt>
      <trkpt lat="43.5385" lon="2.26301">
        <ele>193</ele>
        <time>2017-05-18T13:30:49+02:00</time>
      </trkpt>
      <trkpt lat="43.53847" lon="2.26307">
        <ele>193</ele>
        <time>2017-05-18T13:30:50+02:00</time>
      </trkpt>
      <trkpt lat="43.53845" lon="2.26311">
        <ele>193</ele>
        <time>2017-05-18T13:30:51+02:00</time>
      </trkpt>
      <trkpt lat="43.53838" lon="2.26321">
        <ele>192</ele>
        <time>2017-05-18T13:30:53+02:00</time>
      </trkpt>
      <trkpt lat="43.53835" lon="2.26327">
        <ele>192</ele>
        <time>2017-05-18T13:30:54+02:00</time>
      </trkpt>
      <trkpt lat="43.53833" lon="2.26333">
        <ele>192</ele>
        <time>2017-05-18T13:30:55+02:00</time>
      </trkpt>
      <trkpt lat="43.53833" lon="2.26338">
        <ele>192</ele>
        <time>2017-05-18T13:30:56+02:00</time>
      </trkpt>
      <trkpt lat="43.53834" lon="2.26343">
        <ele>192</ele>
        <time>2017-05-18T13:30:57+02:00</time>
      </trkpt>
      <trkpt lat="43.53836" lon="2.26348">
        <ele>192</ele>
        <time>2017-05-18T13:30:58+02:00</time>
      </trkpt>
      <trkpt lat="43.53838" lon="2.26353">
        <ele>192</ele>
        <time>2017-05-18T13:30:59+02:00</time>
      </trkpt>
      <trkpt lat="43.53841" lon="2.26359">
        <ele>192</ele>
        <time>2017-05-18T13:31:00+02:00</time>
      </trkpt>
      <trkpt lat="43.53864" lon="2.26401">
        <ele>191</ele>
        <time>2017-05-18T13:31:06+02:00</time>
      </trkpt>
      <trkpt lat="43.53889" lon="2.26437">
        <ele>189</ele>
        <time>2017-05-18T13:31:12+02:00</time>
      </trkpt>
      <trkpt lat="43.53906" lon="2.26449">
        <ele>188</ele>
        <time>2017-05-18T13:31:18+02:00</time>
      </trkpt>
      <trkpt lat="43.53966" lon="2.26469">
        <ele>185</ele>
        <time>2017-05-18T13:31:27+02:00</time>
      </trkpt>
      <trkpt lat="43.53992" lon="2.2647">
        <ele>184</ele>
        <time>2017-05-18T13:31:30+02:00</time>
      </trkpt>
      <trkpt lat="43.54009" lon="2.26475">
        <ele>183</ele>
        <time>2017-05-18T13:31:32+02:00</time>
      </trkpt>
      <trkpt lat="43.54016" lon="2.2648">
        <ele>182</ele>
        <time>2017-05-18T13:31:33+02:00</time>
      </trkpt>
      <trkpt lat="43.54023" lon="2.26487">
        <ele>181</ele>
        <time>2017-05-18T13:31:34+02:00</time>
      </trkpt>
      <trkpt lat="43.54029" lon="2.26494">
        <ele>180</ele>
        <time>2017-05-18T13:31:35+02:00</time>
      </trkpt>
      <trkpt lat="43.54035" lon="2.26503">
        <ele>180</ele>
        <time>2017-05-18T13:31:36+02:00</time>
      </trkpt>
      <trkpt lat="43.5404" lon="2.26513">
        <ele>180</ele>
        <time>2017-05-18T13:31:37+02:00</time>
      </trkpt>
      <trkpt lat="43.54045" lon="2.26523">
        <ele>180</ele>
        <time>2017-05-18T13:31:38+02:00</time>
      </trkpt>
      <trkpt lat="43.54109" lon="2.26663">
        <ele>182</ele>
        <time>2017-05-18T13:31:49+02:00</time>
      </trkpt>
      <trkpt lat="43.542" lon="2.26819">
        <ele>182</ele>
        <time>2017-05-18T13:32:02+02:00</time>
      </trkpt>
      <trkpt lat="43.54309" lon="2.27005">
        <ele>183</ele>
        <time>2017-05-18T13:32:18+02:00</time>
      </trkpt>
      <trkpt lat="43.54404" lon="2.27153">
        <ele>182</ele>
        <time>2017-05-18T13:32:30+02:00</time>
      </trkpt>
      <trkpt lat="43.54413" lon="2.27162">
        <ele>182</ele>
        <time>2017-05-18T13:32:31+02:00</time>
      </trkpt>
      <trkpt lat="43.54424" lon="2.27169">
        <ele>182</ele>
        <time>2017-05-18T13:32:32+02:00</time>
      </trkpt>
      <trkpt lat="43.54529" lon="2.27225">
        <ele>180</ele>
        <time>2017-05-18T13:32:44+02:00</time>
      </trkpt>
      <trkpt lat="43.54594" lon="2.27262">
        <ele>180</ele>
        <time>2017-05-18T13:32:55+02:00</time>
      </trkpt>
      <trkpt lat="43.546" lon="2.27273">
        <ele>181</ele>
        <time>2017-05-18T13:32:58+02:00</time>
      </trkpt>
      <trkpt lat="43.54602" lon="2.27279">
        <ele>181</ele>
        <time>2017-05-18T13:32:59+02:00</time>
      </trkpt>
      <trkpt lat="43.54603" lon="2.27286">
        <ele>181</ele>
        <time>2017-05-18T13:33:00+02:00</time>
      </trkpt>
      <trkpt lat="43.54604" lon="2.27295">
        <ele>181</ele>
        <time>2017-05-18T13:33:01+02:00</time>
      </trkpt>
      <trkpt lat="43.54602" lon="2.27336">
        <ele>182</ele>
        <time>2017-05-18T13:33:05+02:00</time>
      </trkpt>
      <trkpt lat="43.546" lon="2.27348">
        <ele>182</ele>
        <time>2017-05-18T13:33:06+02:00</time>
      </trkpt>
      <trkpt lat="43.54593" lon="2.27362">
        <ele>183</ele>
        <time>2017-05-18T13:33:07+02:00</time>
      </trkpt>
      <trkpt lat="43.54565" lon="2.27417">
        <ele>184</ele>
        <time>2017-05-18T13:33:11+02:00</time>
      </trkpt>
      <trkpt lat="43.54537" lon="2.27469">
        <ele>188</ele>
        <time>2017-05-18T13:33:15+02:00</time>
      </trkpt>
      <trkpt lat="43.5451" lon="2.27529">
        <ele>191</ele>
        <time>2017-05-18T13:33:20+02:00</time>
      </trkpt>
      <trkpt lat="43.54498" lon="2.27557">
        <ele>192</ele>
        <time>2017-05-18T13:33:22+02:00</time>
      </trkpt>
      <trkpt lat="43.54475" lon="2.27612">
        <ele>193</ele>
        <time>2017-05-18T13:33:26+02:00</time>
      </trkpt>
      <trkpt lat="43.54468" lon="2.27627">
        <ele>193</ele>
        <time>2017-05-18T13:33:27+02:00</time>
      </trkpt>
      <trkpt lat="43.54437" lon="2.27682">
        <ele>194</ele>
        <time>2017-05-18T13:33:31+02:00</time>
      </trkpt>
      <trkpt lat="43.54408" lon="2.27733">
        <ele>198</ele>
        <time>2017-05-18T13:33:35+02:00</time>
      </trkpt>
      <trkpt lat="43.54366" lon="2.27838">
        <ele>204</ele>
        <time>2017-05-18T13:33:44+02:00</time>
      </trkpt>
      <trkpt lat="43.54346" lon="2.27913">
        <ele>212</ele>
        <time>2017-05-18T13:33:50+02:00</time>
      </trkpt>
      <trkpt lat="43.54341" lon="2.27923">
        <ele>213</ele>
        <time>2017-05-18T13:33:51+02:00</time>
      </trkpt>
      <trkpt lat="43.54331" lon="2.2794">
        <ele>214</ele>
        <time>2017-05-18T13:33:53+02:00</time>
      </trkpt>
      <trkpt lat="43.54321" lon="2.2795">
        <ele>215</ele>
        <time>2017-05-18T13:33:55+02:00</time>
      </trkpt>
      <trkpt lat="43.54317" lon="2.27951">
        <ele>215</ele>
        <time>2017-05-18T13:33:56+02:00</time>
      </trkpt>
      <trkpt lat="43.54314" lon="2.27951">
        <ele>215</ele>
        <time>2017-05-18T13:33:57+02:00</time>
      </trkpt>
      <trkpt lat="43.54312" lon="2.2795">
        <ele>215</ele>
        <time>2017-05-18T13:33:58+02:00</time>
      </trkpt>
      <trkpt lat="43.5431" lon="2.27948">
        <ele>215</ele>
        <time>2017-05-18T13:33:59+02:00</time>
      </trkpt>
      <trkpt lat="43.54309" lon="2.27946">
        <ele>215</ele>
        <time>2017-05-18T13:34:00+02:00</time>
      </trkpt>
      <trkpt lat="43.54308" lon="2.27944">
        <ele>215</ele>
        <time>2017-05-18T13:34:01+02:00</time>
      </trkpt>
      <trkpt lat="43.54307" lon="2.27941">
        <ele>215</ele>
        <time>2017-05-18T13:34:02+02:00</time>
      </trkpt>
      <trkpt lat="43.54309" lon="2.27924">
        <ele>214</ele>
        <time>2017-05-18T13:34:19+02:00</time>
      </trkpt>
      <trkpt lat="43.54311" lon="2.27924">
        <ele>214</ele>
        <time>2017-05-18T13:34:33+02:00</time>
      </trkpt>
      <trkpt lat="43.54311" lon="2.27924">
        <ele>214</ele>
        <time>2017-05-18T13:34:36+02:00</time>
      </trkpt>
      <trkpt lat="43.54313" lon="2.27923">
        <ele>213</ele>
        <time>2017-05-18T13:34:52+02:00</time>
      </trkpt>
      <trkpt lat="43.54311" lon="2.27923">
        <ele>213</ele>
        <time>2017-05-18T13:35:12+02:00</time>
      </trkpt>
      <trkpt lat="43.5431" lon="2.27925">
        <ele>214</ele>
        <time>2017-05-18T13:35:33+02:00</time>
      </trkpt>
      <trkpt lat="43.54306" lon="2.27923">
        <ele>214</ele>
        <time>2017-05-18T13:36:01+02:00</time>
      </trkpt>
      <trkpt lat="43.54304" lon="2.27924">
        <ele>214</ele>
        <time>2017-05-18T13:36:12+02:00</time>
      </trkpt>
      <trkpt lat="43.54304" lon="2.27925">
        <ele>214</ele>
        <time>2017-05-18T13:36:13+02:00</time>
      </trkpt>
      <trkpt lat="43.54298" lon="2.27929">
        <ele>214</ele>
        <time>2017-05-18T13:36:27+02:00</time>
      </trkpt>
      <trkpt lat="43.54298" lon="2.27933">
        <ele>214</ele>
        <time>2017-05-18T13:36:47+02:00</time>
      </trkpt>
      <trkpt lat="43.54296" lon="2.27936">
        <ele>215</ele>
        <time>2017-05-18T13:37:14+02:00</time>
      </trkpt>
      <trkpt lat="43.54296" lon="2.27943">
        <ele>215</ele>
        <time>2017-05-18T13:37:48+02:00</time>
      </trkpt>
      <trkpt lat="43.54295" lon="2.27941">
        <ele>215</ele>
        <time>2017-05-18T13:38:08+02:00</time>
      </trkpt>
      <trkpt lat="43.54295" lon="2.27942">
        <ele>215</ele>
        <time>2017-05-18T13:38:33+02:00</time>
      </trkpt>
      <trkpt lat="43.54297" lon="2.27937">
        <ele>215</ele>
        <time>2017-05-18T13:38:50+02:00</time>
      </trkpt>
      <trkpt lat="43.54295" lon="2.27934">
        <ele>215</ele>
        <time>2017-05-18T13:39:04+02:00</time>
      </trkpt>
      <trkpt lat="43.54293" lon="2.27935">
        <ele>215</ele>
        <time>2017-05-18T13:39:20+02:00</time>
      </trkpt>
      <trkpt lat="43.54292" lon="2.27931">
        <ele>214</ele>
        <time>2017-05-18T13:39:33+02:00</time>
      </trkpt>
      <trkpt lat="43.54285" lon="2.27929">
        <ele>214</ele>
        <time>2017-05-18T13:39:45+02:00</time>
      </trkpt>
      <trkpt lat="43.54277" lon="2.27925">
        <ele>214</ele>
        <time>2017-05-18T13:39:54+02:00</time>
      </trkpt>
      <trkpt lat="43.54266" lon="2.27917">
        <ele>213</ele>
        <time>2017-05-18T13:40:09+02:00</time>
      </trkpt>
      <trkpt lat="43.54254" lon="2.2791">
        <ele>212</ele>
        <time>2017-05-18T13:40:22+02:00</time>
      </trkpt>
      <trkpt lat="43.5424" lon="2.27903">
        <ele>211</ele>
        <time>2017-05-18T13:40:37+02:00</time>
      </trkpt>
      <trkpt lat="43.54229" lon="2.27896">
        <ele>209</ele>
        <time>2017-05-18T13:40:51+02:00</time>
      </trkpt>
      <trkpt lat="43.54226" lon="2.27894">
        <ele>209</ele>
        <time>2017-05-18T13:40:54+02:00</time>
      </trkpt>
      <trkpt lat="43.54213" lon="2.27888">
        <ele>207</ele>
        <time>2017-05-18T13:41:09+02:00</time>
      </trkpt>
      <trkpt lat="43.542" lon="2.2788">
        <ele>206</ele>
        <time>2017-05-18T13:41:22+02:00</time>
      </trkpt>
      <trkpt lat="43.54189" lon="2.27871">
        <ele>204</ele>
        <time>2017-05-18T13:41:35+02:00</time>
      </trkpt>
      <trkpt lat="43.54178" lon="2.27865">
        <ele>203</ele>
        <time>2017-05-18T13:41:49+02:00</time>
      </trkpt>
      <trkpt lat="43.54171" lon="2.27862">
        <ele>202</ele>
        <time>2017-05-18T13:42:00+02:00</time>
      </trkpt>
      <trkpt lat="43.54161" lon="2.27858">
        <ele>201</ele>
        <time>2017-05-18T13:42:14+02:00</time>
      </trkpt>
      <trkpt lat="43.54152" lon="2.27856">
        <ele>199</ele>
        <time>2017-05-18T13:42:29+02:00</time>
      </trkpt>
      <trkpt lat="43.5415" lon="2.27857">
        <ele>199</ele>
        <time>2017-05-18T13:42:31+02:00</time>
      </trkpt>
      <trkpt lat="43.54135" lon="2.27855">
        <ele>197</ele>
        <time>2017-05-18T13:42:48+02:00</time>
      </trkpt>
      <trkpt lat="43.54132" lon="2.27858">
        <ele>197</ele>
        <time>2017-05-18T13:43:02+02:00</time>
      </trkpt>
      <trkpt lat="43.54124" lon="2.27862">
        <ele>196</ele>
        <time>2017-05-18T13:43:13+02:00</time>
      </trkpt>
      <trkpt lat="43.54122" lon="2.2787">
        <ele>196</ele>
        <time>2017-05-18T13:43:19+02:00</time>
      </trkpt>
      <trkpt lat="43.54113" lon="2.2788">
        <ele>196</ele>
        <time>2017-05-18T13:43:33+02:00</time>
      </trkpt>
      <trkpt lat="43.54107" lon="2.27892">
        <ele>195</ele>
        <time>2017-05-18T13:43:44+02:00</time>
      </trkpt>
      <trkpt lat="43.54099" lon="2.27904">
        <ele>195</ele>
        <time>2017-05-18T13:43:56+02:00</time>
      </trkpt>
      <trkpt lat="43.5409" lon="2.27926">
        <ele>194</ele>
        <time>2017-05-18T13:44:11+02:00</time>
      </trkpt>
      <trkpt lat="43.54086" lon="2.27935">
        <ele>194</ele>
        <time>2017-05-18T13:44:19+02:00</time>
      </trkpt>
      <trkpt lat="43.54081" lon="2.2795">
        <ele>195</ele>
        <time>2017-05-18T13:44:30+02:00</time>
      </trkpt>
      <trkpt lat="43.54073" lon="2.27968">
        <ele>196</ele>
        <time>2017-05-18T13:44:45+02:00</time>
      </trkpt>
      <trkpt lat="43.54066" lon="2.27982">
        <ele>196</ele>
        <time>2017-05-18T13:44:57+02:00</time>
      </trkpt>
      <trkpt lat="43.54061" lon="2.27993">
        <ele>196</ele>
        <time>2017-05-18T13:45:08+02:00</time>
      </trkpt>
      <trkpt lat="43.54062" lon="2.28004">
        <ele>197</ele>
        <time>2017-05-18T13:45:21+02:00</time>
      </trkpt>
      <trkpt lat="43.54063" lon="2.28019">
        <ele>198</ele>
        <time>2017-05-18T13:45:36+02:00</time>
      </trkpt>
      <trkpt lat="43.54064" lon="2.28033">
        <ele>199</ele>
        <time>2017-05-18T13:45:50+02:00</time>
      </trkpt>
      <trkpt lat="43.54065" lon="2.28045">
        <ele>200</ele>
        <time>2017-05-18T13:46:04+02:00</time>
      </trkpt>
      <trkpt lat="43.54066" lon="2.28049">
        <ele>200</ele>
        <time>2017-05-18T13:46:13+02:00</time>
      </trkpt>
      <trkpt lat="43.54067" lon="2.28057">
        <ele>201</ele>
        <time>2017-05-18T13:46:24+02:00</time>
      </trkpt>
      <trkpt lat="43.54065" lon="2.28064">
        <ele>201</ele>
        <time>2017-05-18T13:46:34+02:00</time>
      </trkpt>
      <trkpt lat="43.54065" lon="2.28082">
        <ele>202</ele>
        <time>2017-05-18T13:46:50+02:00</time>
      </trkpt>
      <trkpt lat="43.54063" lon="2.28091">
        <ele>202</ele>
        <time>2017-05-18T13:47:01+02:00</time>
      </trkpt>
      <trkpt lat="43.54062" lon="2.2811">
        <ele>203</ele>
        <time>2017-05-18T13:47:14+02:00</time>
      </trkpt>
      <trkpt lat="43.5406" lon="2.28129">
        <ele>203</ele>
        <time>2017-05-18T13:47:27+02:00</time>
      </trkpt>
      <trkpt lat="43.54059" lon="2.28143">
        <ele>204</ele>
        <time>2017-05-18T13:47:44+02:00</time>
      </trkpt>
      <trkpt lat="43.54059" lon="2.28158">
        <ele>205</ele>
        <time>2017-05-18T13:47:57+02:00</time>
      </trkpt>
      <trkpt lat="43.5406" lon="2.28175">
        <ele>207</ele>
        <time>2017-05-18T13:48:12+02:00</time>
      </trkpt>
      <trkpt lat="43.54063" lon="2.28185">
        <ele>209</ele>
        <time>2017-05-18T13:48:26+02:00</time>
      </trkpt>
      <trkpt lat="43.54063" lon="2.28199">
        <ele>210</ele>
        <time>2017-05-18T13:48:40+02:00</time>
      </trkpt>
      <trkpt lat="43.54062" lon="2.28207">
        <ele>210</ele>
        <time>2017-05-18T13:48:51+02:00</time>
      </trkpt>
      <trkpt lat="43.54064" lon="2.28223">
        <ele>212</ele>
        <time>2017-05-18T13:49:02+02:00</time>
      </trkpt>
      <trkpt lat="43.54062" lon="2.2824">
        <ele>213</ele>
        <time>2017-05-18T13:49:20+02:00</time>
      </trkpt>
      <trkpt lat="43.54063" lon="2.28256">
        <ele>215</ele>
        <time>2017-05-18T13:49:33+02:00</time>
      </trkpt>
      <trkpt lat="43.54066" lon="2.28269">
        <ele>218</ele>
        <time>2017-05-18T13:49:48+02:00</time>
      </trkpt>
      <trkpt lat="43.54066" lon="2.28271">
        <ele>218</ele>
        <time>2017-05-18T13:49:49+02:00</time>
      </trkpt>
      <trkpt lat="43.54062" lon="2.28292">
        <ele>219</ele>
        <time>2017-05-18T13:50:05+02:00</time>
      </trkpt>
      <trkpt lat="43.54053" lon="2.28312">
        <ele>219</ele>
        <time>2017-05-18T13:50:22+02:00</time>
      </trkpt>
      <trkpt lat="43.54049" lon="2.28321">
        <ele>219</ele>
        <time>2017-05-18T13:50:29+02:00</time>
      </trkpt>
      <trkpt lat="43.54043" lon="2.28342">
        <ele>219</ele>
        <time>2017-05-18T13:50:45+02:00</time>
      </trkpt>
      <trkpt lat="43.54035" lon="2.28364">
        <ele>219</ele>
        <time>2017-05-18T13:51:03+02:00</time>
      </trkpt>
      <trkpt lat="43.5403" lon="2.28376">
        <ele>219</ele>
        <time>2017-05-18T13:51:14+02:00</time>
      </trkpt>
      <trkpt lat="43.54024" lon="2.28401">
        <ele>220</ele>
        <time>2017-05-18T13:51:31+02:00</time>
      </trkpt>
      <trkpt lat="43.54019" lon="2.28418">
        <ele>221</ele>
        <time>2017-05-18T13:51:44+02:00</time>
      </trkpt>
      <trkpt lat="43.54012" lon="2.28438">
        <ele>220</ele>
        <time>2017-05-18T13:52:01+02:00</time>
      </trkpt>
      <trkpt lat="43.54008" lon="2.28458">
        <ele>220</ele>
        <time>2017-05-18T13:52:14+02:00</time>
      </trkpt>
      <trkpt lat="43.54004" lon="2.28469">
        <ele>220</ele>
        <time>2017-05-18T13:52:27+02:00</time>
      </trkpt>
      <trkpt lat="43.53999" lon="2.28478">
        <ele>219</ele>
        <time>2017-05-18T13:52:41+02:00</time>
      </trkpt>
      <trkpt lat="43.53995" lon="2.2849">
        <ele>218</ele>
        <time>2017-05-18T13:52:56+02:00</time>
      </trkpt>
      <trkpt lat="43.5399" lon="2.28502">
        <ele>217</ele>
        <time>2017-05-18T13:53:08+02:00</time>
      </trkpt>
      <trkpt lat="43.53989" lon="2.28502">
        <ele>217</ele>
        <time>2017-05-18T13:53:09+02:00</time>
      </trkpt>
      <trkpt lat="43.53985" lon="2.28511">
        <ele>216</ele>
        <time>2017-05-18T13:53:15+02:00</time>
      </trkpt>
      <trkpt lat="43.5398" lon="2.28538">
        <ele>215</ele>
        <time>2017-05-18T13:53:32+02:00</time>
      </trkpt>
      <trkpt lat="43.53975" lon="2.2856">
        <ele>213</ele>
        <time>2017-05-18T13:53:47+02:00</time>
      </trkpt>
      <trkpt lat="43.5397" lon="2.28575">
        <ele>212</ele>
        <time>2017-05-18T13:54:01+02:00</time>
      </trkpt>
      <trkpt lat="43.53964" lon="2.28591">
        <ele>211</ele>
        <time>2017-05-18T13:54:14+02:00</time>
      </trkpt>
      <trkpt lat="43.53961" lon="2.28608">
        <ele>212</ele>
        <time>2017-05-18T13:54:29+02:00</time>
      </trkpt>
      <trkpt lat="43.53959" lon="2.28628">
        <ele>213</ele>
        <time>2017-05-18T13:54:43+02:00</time>
      </trkpt>
      <trkpt lat="43.53952" lon="2.2863">
        <ele>211</ele>
        <time>2017-05-18T13:54:58+02:00</time>
      </trkpt>
      <trkpt lat="43.53947" lon="2.2862">
        <ele>209</ele>
        <time>2017-05-18T13:55:12+02:00</time>
      </trkpt>
      <trkpt lat="43.53946" lon="2.2861">
        <ele>208</ele>
        <time>2017-05-18T13:55:25+02:00</time>
      </trkpt>
      <trkpt lat="43.53942" lon="2.28608">
        <ele>207</ele>
        <time>2017-05-18T13:55:38+02:00</time>
      </trkpt>
      <trkpt lat="43.53934" lon="2.28615">
        <ele>206</ele>
        <time>2017-05-18T13:55:51+02:00</time>
      </trkpt>
      <trkpt lat="43.53925" lon="2.28621">
        <ele>205</ele>
        <time>2017-05-18T13:56:05+02:00</time>
      </trkpt>
      <trkpt lat="43.53918" lon="2.28625">
        <ele>203</ele>
        <time>2017-05-18T13:56:16+02:00</time>
      </trkpt>
      <trkpt lat="43.53912" lon="2.28633">
        <ele>203</ele>
        <time>2017-05-18T13:56:26+02:00</time>
      </trkpt>
      <trkpt lat="43.53904" lon="2.28643">
        <ele>202</ele>
        <time>2017-05-18T13:56:40+02:00</time>
      </trkpt>
      <trkpt lat="43.53898" lon="2.28656">
        <ele>202</ele>
        <time>2017-05-18T13:56:54+02:00</time>
      </trkpt>
      <trkpt lat="43.53891" lon="2.28673">
        <ele>202</ele>
        <time>2017-05-18T13:57:07+02:00</time>
      </trkpt>
      <trkpt lat="43.53882" lon="2.28688">
        <ele>201</ele>
        <time>2017-05-18T13:57:21+02:00</time>
      </trkpt>
      <trkpt lat="43.53875" lon="2.28699">
        <ele>200</ele>
        <time>2017-05-18T13:57:33+02:00</time>
      </trkpt>
      <trkpt lat="43.53867" lon="2.28707">
        <ele>199</ele>
        <time>2017-05-18T13:57:45+02:00</time>
      </trkpt>
      <trkpt lat="43.53864" lon="2.28722">
        <ele>199</ele>
        <time>2017-05-18T13:57:55+02:00</time>
      </trkpt>
      <trkpt lat="43.53843" lon="2.28739">
        <ele>195</ele>
        <time>2017-05-18T13:58:08+02:00</time>
      </trkpt>
      <trkpt lat="43.5384" lon="2.28741">
        <ele>195</ele>
        <time>2017-05-18T13:58:10+02:00</time>
      </trkpt>
      <trkpt lat="43.5383" lon="2.28747">
        <ele>193</ele>
        <time>2017-05-18T13:58:19+02:00</time>
      </trkpt>
      <trkpt lat="43.53821" lon="2.28764">
        <ele>193</ele>
        <time>2017-05-18T13:58:32+02:00</time>
      </trkpt>
      <trkpt lat="43.53816" lon="2.28769">
        <ele>193</ele>
        <time>2017-05-18T13:58:38+02:00</time>
      </trkpt>
      <trkpt lat="43.53805" lon="2.28782">
        <ele>192</ele>
        <time>2017-05-18T13:58:52+02:00</time>
      </trkpt>
      <trkpt lat="43.53802" lon="2.28794">
        <ele>192</ele>
        <time>2017-05-18T13:59:01+02:00</time>
      </trkpt>
      <trkpt lat="43.53795" lon="2.28799">
        <ele>191</ele>
        <time>2017-05-18T13:59:13+02:00</time>
      </trkpt>
      <trkpt lat="43.53789" lon="2.28809">
        <ele>190</ele>
        <time>2017-05-18T13:59:26+02:00</time>
      </trkpt>
      <trkpt lat="43.53785" lon="2.28821">
        <ele>190</ele>
        <time>2017-05-18T13:59:40+02:00</time>
      </trkpt>
      <trkpt lat="43.53777" lon="2.28831">
        <ele>189</ele>
        <time>2017-05-18T13:59:52+02:00</time>
      </trkpt>
      <trkpt lat="43.53771" lon="2.2884">
        <ele>189</ele>
        <time>2017-05-18T14:00:05+02:00</time>
      </trkpt>
      <trkpt lat="43.53769" lon="2.28854">
        <ele>189</ele>
        <time>2017-05-18T14:00:18+02:00</time>
      </trkpt>
      <trkpt lat="43.53763" lon="2.28867">
        <ele>189</ele>
        <time>2017-05-18T14:00:32+02:00</time>
      </trkpt>
      <trkpt lat="43.5376" lon="2.2887">
        <ele>189</ele>
        <time>2017-05-18T14:00:37+02:00</time>
      </trkpt>
      <trkpt lat="43.53758" lon="2.28875">
        <ele>189</ele>
        <time>2017-05-18T14:00:41+02:00</time>
      </trkpt>
      <trkpt lat="43.53749" lon="2.28885">
        <ele>188</ele>
        <time>2017-05-18T14:00:54+02:00</time>
      </trkpt>
      <trkpt lat="43.53743" lon="2.28892">
        <ele>188</ele>
        <time>2017-05-18T14:01:07+02:00</time>
      </trkpt>
      <trkpt lat="43.53739" lon="2.28896">
        <ele>188</ele>
        <time>2017-05-18T14:01:13+02:00</time>
      </trkpt>
      <trkpt lat="43.53736" lon="2.28898">
        <ele>188</ele>
        <time>2017-05-18T14:01:16+02:00</time>
      </trkpt>
      <trkpt lat="43.53725" lon="2.28907">
        <ele>188</ele>
        <time>2017-05-18T14:01:32+02:00</time>
      </trkpt>
      <trkpt lat="43.53717" lon="2.28916">
        <ele>187</ele>
        <time>2017-05-18T14:01:45+02:00</time>
      </trkpt>
      <trkpt lat="43.53713" lon="2.28924">
        <ele>187</ele>
        <time>2017-05-18T14:01:56+02:00</time>
      </trkpt>
      <trkpt lat="43.53705" lon="2.28936">
        <ele>188</ele>
        <time>2017-05-18T14:02:12+02:00</time>
      </trkpt>
      <trkpt lat="43.53699" lon="2.2894">
        <ele>187</ele>
        <time>2017-05-18T14:02:29+02:00</time>
      </trkpt>
      <trkpt lat="43.53688" lon="2.28949">
        <ele>186</ele>
        <time>2017-05-18T14:02:41+02:00</time>
      </trkpt>
      <trkpt lat="43.53683" lon="2.28962">
        <ele>186</ele>
        <time>2017-05-18T14:02:56+02:00</time>
      </trkpt>
      <trkpt lat="43.53683" lon="2.28974">
        <ele>187</ele>
        <time>2017-05-18T14:03:07+02:00</time>
      </trkpt>
      <trkpt lat="43.53683" lon="2.28984">
        <ele>187</ele>
        <time>2017-05-18T14:03:16+02:00</time>
      </trkpt>
      <trkpt lat="43.53683" lon="2.28995">
        <ele>188</ele>
        <time>2017-05-18T14:03:27+02:00</time>
      </trkpt>
      <trkpt lat="43.53683" lon="2.28996">
        <ele>188</ele>
        <time>2017-05-18T14:03:28+02:00</time>
      </trkpt>
      <trkpt lat="43.53687" lon="2.2898">
        <ele>188</ele>
        <time>2017-05-18T14:03:48+02:00</time>
      </trkpt>
      <trkpt lat="43.53683" lon="2.28986">
        <ele>187</ele>
        <time>2017-05-18T14:04:09+02:00</time>
      </trkpt>
      <trkpt lat="43.5368" lon="2.28984">
        <ele>187</ele>
        <time>2017-05-18T14:04:14+02:00</time>
      </trkpt>
      <trkpt lat="43.53684" lon="2.29005">
        <ele>188</ele>
        <time>2017-05-18T14:05:05+02:00</time>
      </trkpt>
      <trkpt lat="43.53683" lon="2.29018">
        <ele>188</ele>
        <time>2017-05-18T14:05:31+02:00</time>
      </trkpt>
      <trkpt lat="43.5368" lon="2.2902">
        <ele>188</ele>
        <time>2017-05-18T14:05:52+02:00</time>
      </trkpt>
      <trkpt lat="43.53675" lon="2.29022">
        <ele>187</ele>
        <time>2017-05-18T14:06:00+02:00</time>
      </trkpt>
      <trkpt lat="43.53693" lon="2.28987">
        <ele>189</ele>
        <time>2017-05-18T14:06:14+02:00</time>
      </trkpt>
      <trkpt lat="43.53697" lon="2.28975">
        <ele>189</ele>
        <time>2017-05-18T14:06:29+02:00</time>
      </trkpt>
      <trkpt lat="43.53699" lon="2.28968">
        <ele>189</ele>
        <time>2017-05-18T14:06:45+02:00</time>
      </trkpt>
      <trkpt lat="43.53711" lon="2.28957">
        <ele>190</ele>
        <time>2017-05-18T14:07:01+02:00</time>
      </trkpt>
      <trkpt lat="43.53714" lon="2.28952">
        <ele>190</ele>
        <time>2017-05-18T14:07:11+02:00</time>
      </trkpt>
      <trkpt lat="43.53719" lon="2.28943">
        <ele>190</ele>
        <time>2017-05-18T14:07:26+02:00</time>
      </trkpt>
      <trkpt lat="43.53725" lon="2.28943">
        <ele>190</ele>
        <time>2017-05-18T14:07:41+02:00</time>
      </trkpt>
      <trkpt lat="43.53729" lon="2.28942">
        <ele>191</ele>
        <time>2017-05-18T14:07:58+02:00</time>
      </trkpt>
      <trkpt lat="43.53733" lon="2.28941">
        <ele>191</ele>
        <time>2017-05-18T14:08:11+02:00</time>
      </trkpt>
      <trkpt lat="43.53733" lon="2.2895">
        <ele>192</ele>
        <time>2017-05-18T14:08:23+02:00</time>
      </trkpt>
      <trkpt lat="43.53732" lon="2.28954">
        <ele>192</ele>
        <time>2017-05-18T14:08:30+02:00</time>
      </trkpt>
      <trkpt lat="43.5373" lon="2.28965">
        <ele>193</ele>
        <time>2017-05-18T14:08:43+02:00</time>
      </trkpt>
      <trkpt lat="43.53727" lon="2.28973">
        <ele>193</ele>
        <time>2017-05-18T14:08:56+02:00</time>
      </trkpt>
      <trkpt lat="43.53727" lon="2.28986">
        <ele>195</ele>
        <time>2017-05-18T14:09:10+02:00</time>
      </trkpt>
      <trkpt lat="43.53723" lon="2.28997">
        <ele>195</ele>
        <time>2017-05-18T14:09:27+02:00</time>
      </trkpt>
      <trkpt lat="43.53722" lon="2.2901">
        <ele>195</ele>
        <time>2017-05-18T14:09:40+02:00</time>
      </trkpt>
      <trkpt lat="43.53719" lon="2.29026">
        <ele>195</ele>
        <time>2017-05-18T14:09:55+02:00</time>
      </trkpt>
      <trkpt lat="43.53714" lon="2.29037">
        <ele>194</ele>
        <time>2017-05-18T14:10:07+02:00</time>
      </trkpt>
      <trkpt lat="43.53713" lon="2.29053">
        <ele>194</ele>
        <time>2017-05-18T14:10:18+02:00</time>
      </trkpt>
      <trkpt lat="43.53716" lon="2.29071">
        <ele>195</ele>
        <time>2017-05-18T14:10:31+02:00</time>
      </trkpt>
      <trkpt lat="43.5372" lon="2.29087">
        <ele>197</ele>
        <time>2017-05-18T14:10:45+02:00</time>
      </trkpt>
      <trkpt lat="43.53723" lon="2.29108">
        <ele>198</ele>
        <time>2017-05-18T14:10:58+02:00</time>
      </trkpt>
      <trkpt lat="43.53723" lon="2.29109">
        <ele>198</ele>
        <time>2017-05-18T14:11:24+02:00</time>
      </trkpt>
      <trkpt lat="43.53725" lon="2.29102">
        <ele>199</ele>
        <time>2017-05-18T14:11:46+02:00</time>
      </trkpt>
      <trkpt lat="43.53723" lon="2.29101">
        <ele>198</ele>
        <time>2017-05-18T14:12:12+02:00</time>
      </trkpt>
      <trkpt lat="43.53724" lon="2.29103">
        <ele>198</ele>
        <time>2017-05-18T14:12:53+02:00</time>
      </trkpt>
      <trkpt lat="43.53725" lon="2.29114">
        <ele>199</ele>
        <time>2017-05-18T14:13:09+02:00</time>
      </trkpt>
      <trkpt lat="43.53722" lon="2.29128">
        <ele>199</ele>
        <time>2017-05-18T14:13:22+02:00</time>
      </trkpt>
      <trkpt lat="43.53721" lon="2.29133">
        <ele>199</ele>
        <time>2017-05-18T14:13:25+02:00</time>
      </trkpt>
      <trkpt lat="43.53721" lon="2.29161">
        <ele>200</ele>
        <time>2017-05-18T14:13:42+02:00</time>
      </trkpt>
      <trkpt lat="43.53719" lon="2.29183">
        <ele>201</ele>
        <time>2017-05-18T14:13:58+02:00</time>
      </trkpt>
      <trkpt lat="43.53716" lon="2.2919">
        <ele>201</ele>
        <time>2017-05-18T14:14:03+02:00</time>
      </trkpt>
      <trkpt lat="43.53708" lon="2.29218">
        <ele>201</ele>
        <time>2017-05-18T14:14:22+02:00</time>
      </trkpt>
      <trkpt lat="43.53708" lon="2.29219">
        <ele>201</ele>
        <time>2017-05-18T14:14:23+02:00</time>
      </trkpt>
      <trkpt lat="43.53701" lon="2.29238">
        <ele>201</ele>
        <time>2017-05-18T14:14:35+02:00</time>
      </trkpt>
      <trkpt lat="43.537" lon="2.29243">
        <ele>201</ele>
        <time>2017-05-18T14:14:38+02:00</time>
      </trkpt>
      <trkpt lat="43.53697" lon="2.2925">
        <ele>201</ele>
        <time>2017-05-18T14:14:43+02:00</time>
      </trkpt>
      <trkpt lat="43.53689" lon="2.29279">
        <ele>203</ele>
        <time>2017-05-18T14:15:02+02:00</time>
      </trkpt>
      <trkpt lat="43.53681" lon="2.29303">
        <ele>204</ele>
        <time>2017-05-18T14:15:18+02:00</time>
      </trkpt>
      <trkpt lat="43.53681" lon="2.29304">
        <ele>204</ele>
        <time>2017-05-18T14:15:19+02:00</time>
      </trkpt>
      <trkpt lat="43.53673" lon="2.29318">
        <ele>204</ele>
        <time>2017-05-18T14:15:32+02:00</time>
      </trkpt>
      <trkpt lat="43.5367" lon="2.29324">
        <ele>204</ele>
        <time>2017-05-18T14:15:36+02:00</time>
      </trkpt>
      <trkpt lat="43.5366" lon="2.29346">
        <ele>205</ele>
        <time>2017-05-18T14:15:53+02:00</time>
      </trkpt>
      <trkpt lat="43.53652" lon="2.29367">
        <ele>205</ele>
        <time>2017-05-18T14:16:08+02:00</time>
      </trkpt>
      <trkpt lat="43.53639" lon="2.29382">
        <ele>204</ele>
        <time>2017-05-18T14:16:24+02:00</time>
      </trkpt>
      <trkpt lat="43.53629" lon="2.29394">
        <ele>204</ele>
        <time>2017-05-18T14:16:37+02:00</time>
      </trkpt>
      <trkpt lat="43.5362" lon="2.29408">
        <ele>203</ele>
        <time>2017-05-18T14:16:50+02:00</time>
      </trkpt>
      <trkpt lat="43.5361" lon="2.29421">
        <ele>203</ele>
        <time>2017-05-18T14:17:02+02:00</time>
      </trkpt>
      <trkpt lat="43.53604" lon="2.29437">
        <ele>204</ele>
        <time>2017-05-18T14:17:15+02:00</time>
      </trkpt>
      <trkpt lat="43.536" lon="2.29453">
        <ele>206</ele>
        <time>2017-05-18T14:17:27+02:00</time>
      </trkpt>
      <trkpt lat="43.53594" lon="2.29467">
        <ele>207</ele>
        <time>2017-05-18T14:17:38+02:00</time>
      </trkpt>
      <trkpt lat="43.53592" lon="2.29484">
        <ele>209</ele>
        <time>2017-05-18T14:17:50+02:00</time>
      </trkpt>
      <trkpt lat="43.53594" lon="2.29502">
        <ele>212</ele>
        <time>2017-05-18T14:18:04+02:00</time>
      </trkpt>
      <trkpt lat="43.53591" lon="2.29515">
        <ele>214</ele>
        <time>2017-05-18T14:18:17+02:00</time>
      </trkpt>
      <trkpt lat="43.53588" lon="2.29524">
        <ele>215</ele>
        <time>2017-05-18T14:18:24+02:00</time>
      </trkpt>
      <trkpt lat="43.53582" lon="2.2954">
        <ele>216</ele>
        <time>2017-05-18T14:18:37+02:00</time>
      </trkpt>
      <trkpt lat="43.53575" lon="2.29542">
        <ele>215</ele>
        <time>2017-05-18T14:18:50+02:00</time>
      </trkpt>
      <trkpt lat="43.53568" lon="2.29542">
        <ele>214</ele>
        <time>2017-05-18T14:19:00+02:00</time>
      </trkpt>
      <trkpt lat="43.53564" lon="2.29549">
        <ele>214</ele>
        <time>2017-05-18T14:19:11+02:00</time>
      </trkpt>
      <trkpt lat="43.53548" lon="2.29561">
        <ele>212</ele>
        <time>2017-05-18T14:19:24+02:00</time>
      </trkpt>
      <trkpt lat="43.53525" lon="2.29579">
        <ele>211</ele>
        <time>2017-05-18T14:19:39+02:00</time>
      </trkpt>
      <trkpt lat="43.53515" lon="2.29592">
        <ele>212</ele>
        <time>2017-05-18T14:19:51+02:00</time>
      </trkpt>
      <trkpt lat="43.53505" lon="2.296">
        <ele>212</ele>
        <time>2017-05-18T14:20:04+02:00</time>
      </trkpt>
      <trkpt lat="43.53494" lon="2.29611">
        <ele>212</ele>
        <time>2017-05-18T14:20:17+02:00</time>
      </trkpt>
      <trkpt lat="43.53477" lon="2.29625">
        <ele>211</ele>
        <time>2017-05-18T14:20:32+02:00</time>
      </trkpt>
      <trkpt lat="43.53473" lon="2.29634">
        <ele>212</ele>
        <time>2017-05-18T14:20:37+02:00</time>
      </trkpt>
      <trkpt lat="43.5346" lon="2.29653">
        <ele>213</ele>
        <time>2017-05-18T14:20:52+02:00</time>
      </trkpt>
      <trkpt lat="43.53448" lon="2.29668">
        <ele>214</ele>
        <time>2017-05-18T14:21:08+02:00</time>
      </trkpt>
      <trkpt lat="43.53439" lon="2.29681">
        <ele>215</ele>
        <time>2017-05-18T14:21:23+02:00</time>
      </trkpt>
      <trkpt lat="43.53428" lon="2.29691">
        <ele>215</ele>
        <time>2017-05-18T14:21:40+02:00</time>
      </trkpt>
      <trkpt lat="43.53424" lon="2.29691">
        <ele>214</ele>
        <time>2017-05-18T14:22:00+02:00</time>
      </trkpt>
      <trkpt lat="43.53424" lon="2.29693">
        <ele>214</ele>
        <time>2017-05-18T14:22:20+02:00</time>
      </trkpt>
      <trkpt lat="43.53419" lon="2.29696">
        <ele>214</ele>
        <time>2017-05-18T14:22:35+02:00</time>
      </trkpt>
      <trkpt lat="43.53414" lon="2.29706">
        <ele>215</ele>
        <time>2017-05-18T14:22:49+02:00</time>
      </trkpt>
      <trkpt lat="43.53412" lon="2.29715">
        <ele>217</ele>
        <time>2017-05-18T14:23:02+02:00</time>
      </trkpt>
      <trkpt lat="43.5341" lon="2.29719">
        <ele>217</ele>
        <time>2017-05-18T14:23:05+02:00</time>
      </trkpt>
      <trkpt lat="43.53406" lon="2.29728">
        <ele>219</ele>
        <time>2017-05-18T14:23:11+02:00</time>
      </trkpt>
      <trkpt lat="43.53402" lon="2.29733">
        <ele>219</ele>
        <time>2017-05-18T14:23:16+02:00</time>
      </trkpt>
      <trkpt lat="43.534" lon="2.29738">
        <ele>219</ele>
        <time>2017-05-18T14:23:20+02:00</time>
      </trkpt>
      <trkpt lat="43.53385" lon="2.2976">
        <ele>221</ele>
        <time>2017-05-18T14:23:40+02:00</time>
      </trkpt>
      <trkpt lat="43.5337" lon="2.29781">
        <ele>221</ele>
        <time>2017-05-18T14:23:59+02:00</time>
      </trkpt>
      <trkpt lat="43.53356" lon="2.29796">
        <ele>222</ele>
        <time>2017-05-18T14:24:15+02:00</time>
      </trkpt>
      <trkpt lat="43.53338" lon="2.29817">
        <ele>224</ele>
        <time>2017-05-18T14:24:34+02:00</time>
      </trkpt>
      <trkpt lat="43.53321" lon="2.29837">
        <ele>225</ele>
        <time>2017-05-18T14:24:54+02:00</time>
      </trkpt>
      <trkpt lat="43.53302" lon="2.29851">
        <ele>224</ele>
        <time>2017-05-18T14:25:12+02:00</time>
      </trkpt>
      <trkpt lat="43.53281" lon="2.29867">
        <ele>223</ele>
        <time>2017-05-18T14:25:33+02:00</time>
      </trkpt>
      <trkpt lat="43.53263" lon="2.2988">
        <ele>223</ele>
        <time>2017-05-18T14:25:50+02:00</time>
      </trkpt>
      <trkpt lat="43.53262" lon="2.29881">
        <ele>223</ele>
        <time>2017-05-18T14:25:51+02:00</time>
      </trkpt>
      <trkpt lat="43.53252" lon="2.29886">
        <ele>223</ele>
        <time>2017-05-18T14:26:05+02:00</time>
      </trkpt>
      <trkpt lat="43.53244" lon="2.29896">
        <ele>224</ele>
        <time>2017-05-18T14:26:18+02:00</time>
      </trkpt>
      <trkpt lat="43.53234" lon="2.29909">
        <ele>225</ele>
        <time>2017-05-18T14:26:32+02:00</time>
      </trkpt>
      <trkpt lat="43.5323" lon="2.29915">
        <ele>225</ele>
        <time>2017-05-18T14:26:38+02:00</time>
      </trkpt>
      <trkpt lat="43.53216" lon="2.29931">
        <ele>225</ele>
        <time>2017-05-18T14:26:55+02:00</time>
      </trkpt>
      <trkpt lat="43.532" lon="2.29952">
        <ele>226</ele>
        <time>2017-05-18T14:27:13+02:00</time>
      </trkpt>
      <trkpt lat="43.5319" lon="2.29968">
        <ele>227</ele>
        <time>2017-05-18T14:27:28+02:00</time>
      </trkpt>
      <trkpt lat="43.53176" lon="2.29991">
        <ele>231</ele>
        <time>2017-05-18T14:27:48+02:00</time>
      </trkpt>
      <trkpt lat="43.53171" lon="2.29998">
        <ele>232</ele>
        <time>2017-05-18T14:27:55+02:00</time>
      </trkpt>
      <trkpt lat="43.53157" lon="2.3001">
        <ele>231</ele>
        <time>2017-05-18T14:28:11+02:00</time>
      </trkpt>
      <trkpt lat="43.53146" lon="2.30023">
        <ele>229</ele>
        <time>2017-05-18T14:28:26+02:00</time>
      </trkpt>
      <trkpt lat="43.53144" lon="2.30042">
        <ele>230</ele>
        <time>2017-05-18T14:28:41+02:00</time>
      </trkpt>
      <trkpt lat="43.53151" lon="2.30062">
        <ele>232</ele>
        <time>2017-05-18T14:28:56+02:00</time>
      </trkpt>
      <trkpt lat="43.53162" lon="2.30078">
        <ele>236</ele>
        <time>2017-05-18T14:29:13+02:00</time>
      </trkpt>
      <trkpt lat="43.53176" lon="2.30102">
        <ele>236</ele>
        <time>2017-05-18T14:29:33+02:00</time>
      </trkpt>
      <trkpt lat="43.53191" lon="2.30121">
        <ele>236</ele>
        <time>2017-05-18T14:29:51+02:00</time>
      </trkpt>
      <trkpt lat="43.532" lon="2.3014">
        <ele>236</ele>
        <time>2017-05-18T14:30:07+02:00</time>
      </trkpt>
      <trkpt lat="43.53203" lon="2.30149">
        <ele>236</ele>
        <time>2017-05-18T14:30:13+02:00</time>
      </trkpt>
      <trkpt lat="43.53216" lon="2.30169">
        <ele>236</ele>
        <time>2017-05-18T14:30:30+02:00</time>
      </trkpt>
      <trkpt lat="43.53234" lon="2.30191">
        <ele>237</ele>
        <time>2017-05-18T14:30:51+02:00</time>
      </trkpt>
      <trkpt lat="43.53249" lon="2.30202">
        <ele>238</ele>
        <time>2017-05-18T14:31:05+02:00</time>
      </trkpt>
      <trkpt lat="43.53253" lon="2.30204">
        <ele>238</ele>
        <time>2017-05-18T14:31:09+02:00</time>
      </trkpt>
      <trkpt lat="43.53265" lon="2.30213">
        <ele>238</ele>
        <time>2017-05-18T14:31:22+02:00</time>
      </trkpt>
      <trkpt lat="43.53266" lon="2.30214">
        <ele>238</ele>
        <time>2017-05-18T14:31:23+02:00</time>
      </trkpt>
      <trkpt lat="43.53278" lon="2.30232">
        <ele>238</ele>
        <time>2017-05-18T14:31:38+02:00</time>
      </trkpt>
      <trkpt lat="43.53295" lon="2.3025">
        <ele>238</ele>
        <time>2017-05-18T14:31:56+02:00</time>
      </trkpt>
      <trkpt lat="43.53309" lon="2.30272">
        <ele>237</ele>
        <time>2017-05-18T14:32:14+02:00</time>
      </trkpt>
      <trkpt lat="43.53319" lon="2.30293">
        <ele>237</ele>
        <time>2017-05-18T14:32:31+02:00</time>
      </trkpt>
      <trkpt lat="43.53322" lon="2.30305">
        <ele>237</ele>
        <time>2017-05-18T14:32:39+02:00</time>
      </trkpt>
      <trkpt lat="43.53324" lon="2.30321">
        <ele>236</ele>
        <time>2017-05-18T14:32:55+02:00</time>
      </trkpt>
      <trkpt lat="43.53325" lon="2.30325">
        <ele>236</ele>
        <time>2017-05-18T14:33:19+02:00</time>
      </trkpt>
      <trkpt lat="43.53326" lon="2.30326">
        <ele>237</ele>
        <time>2017-05-18T14:33:40+02:00</time>
      </trkpt>
      <trkpt lat="43.53325" lon="2.3033">
        <ele>236</ele>
        <time>2017-05-18T14:34:01+02:00</time>
      </trkpt>
      <trkpt lat="43.53319" lon="2.30338">
        <ele>235</ele>
        <time>2017-05-18T14:34:11+02:00</time>
      </trkpt>
      <trkpt lat="43.53324" lon="2.3035">
        <ele>235</ele>
        <time>2017-05-18T14:34:21+02:00</time>
      </trkpt>
      <trkpt lat="43.53342" lon="2.3036">
        <ele>236</ele>
        <time>2017-05-18T14:34:41+02:00</time>
      </trkpt>
      <trkpt lat="43.53361" lon="2.30376">
        <ele>236</ele>
        <time>2017-05-18T14:35:01+02:00</time>
      </trkpt>
      <trkpt lat="43.53375" lon="2.30389">
        <ele>236</ele>
        <time>2017-05-18T14:35:16+02:00</time>
      </trkpt>
      <trkpt lat="43.5339" lon="2.30404">
        <ele>237</ele>
        <time>2017-05-18T14:35:33+02:00</time>
      </trkpt>
      <trkpt lat="43.53409" lon="2.30421">
        <ele>239</ele>
        <time>2017-05-18T14:35:50+02:00</time>
      </trkpt>
      <trkpt lat="43.53426" lon="2.30436">
        <ele>240</ele>
        <time>2017-05-18T14:36:06+02:00</time>
      </trkpt>
      <trkpt lat="43.53446" lon="2.30454">
        <ele>240</ele>
        <time>2017-05-18T14:36:26+02:00</time>
      </trkpt>
      <trkpt lat="43.53463" lon="2.30469">
        <ele>241</ele>
        <time>2017-05-18T14:36:43+02:00</time>
      </trkpt>
      <trkpt lat="43.53472" lon="2.30478">
        <ele>241</ele>
        <time>2017-05-18T14:36:53+02:00</time>
      </trkpt>
      <trkpt lat="43.53494" lon="2.30497">
        <ele>242</ele>
        <time>2017-05-18T14:37:13+02:00</time>
      </trkpt>
      <trkpt lat="43.5351" lon="2.30509">
        <ele>242</ele>
        <time>2017-05-18T14:37:29+02:00</time>
      </trkpt>
      <trkpt lat="43.53511" lon="2.30511">
        <ele>242</ele>
        <time>2017-05-18T14:37:30+02:00</time>
      </trkpt>
      <trkpt lat="43.53515" lon="2.30529">
        <ele>242</ele>
        <time>2017-05-18T14:37:41+02:00</time>
      </trkpt>
      <trkpt lat="43.53518" lon="2.30542">
        <ele>242</ele>
        <time>2017-05-18T14:37:54+02:00</time>
      </trkpt>
      <trkpt lat="43.53518" lon="2.30557">
        <ele>243</ele>
        <time>2017-05-18T14:38:05+02:00</time>
      </trkpt>
      <trkpt lat="43.53518" lon="2.30579">
        <ele>243</ele>
        <time>2017-05-18T14:38:19+02:00</time>
      </trkpt>
      <trkpt lat="43.53521" lon="2.30604">
        <ele>243</ele>
        <time>2017-05-18T14:38:36+02:00</time>
      </trkpt>
      <trkpt lat="43.53524" lon="2.30625">
        <ele>243</ele>
        <time>2017-05-18T14:38:51+02:00</time>
      </trkpt>
      <trkpt lat="43.5353" lon="2.30648">
        <ele>243</ele>
        <time>2017-05-18T14:39:05+02:00</time>
      </trkpt>
      <trkpt lat="43.53535" lon="2.30674">
        <ele>243</ele>
        <time>2017-05-18T14:39:21+02:00</time>
      </trkpt>
      <trkpt lat="43.53538" lon="2.30682">
        <ele>243</ele>
        <time>2017-05-18T14:39:27+02:00</time>
      </trkpt>
      <trkpt lat="43.53546" lon="2.30713">
        <ele>243</ele>
        <time>2017-05-18T14:39:47+02:00</time>
      </trkpt>
      <trkpt lat="43.53551" lon="2.30737">
        <ele>243</ele>
        <time>2017-05-18T14:40:03+02:00</time>
      </trkpt>
      <trkpt lat="43.5356" lon="2.3076">
        <ele>244</ele>
        <time>2017-05-18T14:40:20+02:00</time>
      </trkpt>
      <trkpt lat="43.53573" lon="2.3078">
        <ele>245</ele>
        <time>2017-05-18T14:40:37+02:00</time>
      </trkpt>
      <trkpt lat="43.53589" lon="2.30797">
        <ele>246</ele>
        <time>2017-05-18T14:40:55+02:00</time>
      </trkpt>
      <trkpt lat="43.536" lon="2.30814">
        <ele>246</ele>
        <time>2017-05-18T14:41:11+02:00</time>
      </trkpt>
      <trkpt lat="43.53602" lon="2.30816">
        <ele>246</ele>
        <time>2017-05-18T14:41:16+02:00</time>
      </trkpt>
      <trkpt lat="43.53606" lon="2.30822">
        <ele>247</ele>
        <time>2017-05-18T14:41:22+02:00</time>
      </trkpt>
      <trkpt lat="43.53609" lon="2.30825">
        <ele>247</ele>
        <time>2017-05-18T14:41:26+02:00</time>
      </trkpt>
      <trkpt lat="43.53612" lon="2.30831">
        <ele>247</ele>
        <time>2017-05-18T14:41:31+02:00</time>
      </trkpt>
      <trkpt lat="43.53626" lon="2.30848">
        <ele>248</ele>
        <time>2017-05-18T14:41:48+02:00</time>
      </trkpt>
      <trkpt lat="43.53636" lon="2.30868">
        <ele>249</ele>
        <time>2017-05-18T14:42:03+02:00</time>
      </trkpt>
      <trkpt lat="43.53642" lon="2.30885">
        <ele>249</ele>
        <time>2017-05-18T14:42:17+02:00</time>
      </trkpt>
      <trkpt lat="43.53646" lon="2.30908">
        <ele>250</ele>
        <time>2017-05-18T14:42:31+02:00</time>
      </trkpt>
      <trkpt lat="43.53652" lon="2.3093">
        <ele>251</ele>
        <time>2017-05-18T14:42:45+02:00</time>
      </trkpt>
      <trkpt lat="43.53659" lon="2.30948">
        <ele>252</ele>
        <time>2017-05-18T14:42:58+02:00</time>
      </trkpt>
      <trkpt lat="43.53667" lon="2.30969">
        <ele>252</ele>
        <time>2017-05-18T14:43:14+02:00</time>
      </trkpt>
      <trkpt lat="43.53674" lon="2.30994">
        <ele>253</ele>
        <time>2017-05-18T14:43:31+02:00</time>
      </trkpt>
      <trkpt lat="43.53675" lon="2.31005">
        <ele>254</ele>
        <time>2017-05-18T14:43:39+02:00</time>
      </trkpt>
      <trkpt lat="43.53677" lon="2.31011">
        <ele>254</ele>
        <time>2017-05-18T14:43:43+02:00</time>
      </trkpt>
      <trkpt lat="43.53682" lon="2.31033">
        <ele>255</ele>
        <time>2017-05-18T14:43:59+02:00</time>
      </trkpt>
      <trkpt lat="43.53682" lon="2.31035">
        <ele>255</ele>
        <time>2017-05-18T14:44:00+02:00</time>
      </trkpt>
      <trkpt lat="43.53687" lon="2.31061">
        <ele>256</ele>
        <time>2017-05-18T14:44:16+02:00</time>
      </trkpt>
      <trkpt lat="43.53692" lon="2.31086">
        <ele>257</ele>
        <time>2017-05-18T14:44:33+02:00</time>
      </trkpt>
      <trkpt lat="43.53698" lon="2.31112">
        <ele>258</ele>
        <time>2017-05-18T14:44:51+02:00</time>
      </trkpt>
      <trkpt lat="43.53705" lon="2.3114">
        <ele>259</ele>
        <time>2017-05-18T14:45:11+02:00</time>
      </trkpt>
      <trkpt lat="43.53706" lon="2.31148">
        <ele>259</ele>
        <time>2017-05-18T14:45:16+02:00</time>
      </trkpt>
      <trkpt lat="43.53709" lon="2.31173">
        <ele>260</ele>
        <time>2017-05-18T14:45:33+02:00</time>
      </trkpt>
      <trkpt lat="43.53712" lon="2.31193">
        <ele>261</ele>
        <time>2017-05-18T14:45:48+02:00</time>
      </trkpt>
      <trkpt lat="43.53716" lon="2.31211">
        <ele>261</ele>
        <time>2017-05-18T14:46:02+02:00</time>
      </trkpt>
      <trkpt lat="43.53723" lon="2.31236">
        <ele>262</ele>
        <time>2017-05-18T14:46:18+02:00</time>
      </trkpt>
      <trkpt lat="43.53724" lon="2.3124">
        <ele>262</ele>
        <time>2017-05-18T14:46:21+02:00</time>
      </trkpt>
      <trkpt lat="43.53725" lon="2.31263">
        <ele>263</ele>
        <time>2017-05-18T14:46:36+02:00</time>
      </trkpt>
      <trkpt lat="43.53726" lon="2.31286">
        <ele>263</ele>
        <time>2017-05-18T14:46:51+02:00</time>
      </trkpt>
      <trkpt lat="43.53729" lon="2.31313">
        <ele>264</ele>
        <time>2017-05-18T14:47:09+02:00</time>
      </trkpt>
      <trkpt lat="43.53729" lon="2.31334">
        <ele>264</ele>
        <time>2017-05-18T14:47:22+02:00</time>
      </trkpt>
      <trkpt lat="43.53732" lon="2.31361">
        <ele>264</ele>
        <time>2017-05-18T14:47:39+02:00</time>
      </trkpt>
      <trkpt lat="43.53732" lon="2.31385">
        <ele>264</ele>
        <time>2017-05-18T14:47:55+02:00</time>
      </trkpt>
      <trkpt lat="43.53731" lon="2.31409">
        <ele>264</ele>
        <time>2017-05-18T14:48:10+02:00</time>
      </trkpt>
      <trkpt lat="43.53734" lon="2.31437">
        <ele>264</ele>
        <time>2017-05-18T14:48:29+02:00</time>
      </trkpt>
      <trkpt lat="43.53736" lon="2.31463">
        <ele>264</ele>
        <time>2017-05-18T14:48:47+02:00</time>
      </trkpt>
      <trkpt lat="43.53742" lon="2.31493">
        <ele>264</ele>
        <time>2017-05-18T14:49:07+02:00</time>
      </trkpt>
      <trkpt lat="43.53744" lon="2.31521">
        <ele>265</ele>
        <time>2017-05-18T14:49:23+02:00</time>
      </trkpt>
      <trkpt lat="43.53744" lon="2.31548">
        <ele>266</ele>
        <time>2017-05-18T14:49:40+02:00</time>
      </trkpt>
      <trkpt lat="43.53745" lon="2.31574">
        <ele>267</ele>
        <time>2017-05-18T14:49:57+02:00</time>
      </trkpt>
      <trkpt lat="43.53743" lon="2.31594">
        <ele>267</ele>
        <time>2017-05-18T14:50:11+02:00</time>
      </trkpt>
      <trkpt lat="43.53743" lon="2.31599">
        <ele>267</ele>
        <time>2017-05-18T14:50:13+02:00</time>
      </trkpt>
      <trkpt lat="43.53742" lon="2.31625">
        <ele>268</ele>
        <time>2017-05-18T14:50:29+02:00</time>
      </trkpt>
      <trkpt lat="43.53745" lon="2.31654">
        <ele>269</ele>
        <time>2017-05-18T14:50:46+02:00</time>
      </trkpt>
      <trkpt lat="43.53748" lon="2.31676">
        <ele>270</ele>
        <time>2017-05-18T14:51:01+02:00</time>
      </trkpt>
      <trkpt lat="43.5375" lon="2.31697">
        <ele>270</ele>
        <time>2017-05-18T14:51:16+02:00</time>
      </trkpt>
      <trkpt lat="43.53756" lon="2.31719">
        <ele>271</ele>
        <time>2017-05-18T14:51:35+02:00</time>
      </trkpt>
      <trkpt lat="43.53757" lon="2.31742">
        <ele>271</ele>
        <time>2017-05-18T14:51:52+02:00</time>
      </trkpt>
      <trkpt lat="43.53759" lon="2.31762">
        <ele>272</ele>
        <time>2017-05-18T14:52:04+02:00</time>
      </trkpt>
      <trkpt lat="43.53762" lon="2.3179">
        <ele>273</ele>
        <time>2017-05-18T14:52:23+02:00</time>
      </trkpt>
      <trkpt lat="43.53763" lon="2.31798">
        <ele>273</ele>
        <time>2017-05-18T14:52:28+02:00</time>
      </trkpt>
      <trkpt lat="43.53765" lon="2.31825">
        <ele>274</ele>
        <time>2017-05-18T14:52:44+02:00</time>
      </trkpt>
      <trkpt lat="43.53766" lon="2.31849">
        <ele>275</ele>
        <time>2017-05-18T14:53:00+02:00</time>
      </trkpt>
      <trkpt lat="43.53765" lon="2.31872">
        <ele>275</ele>
        <time>2017-05-18T14:53:16+02:00</time>
      </trkpt>
      <trkpt lat="43.53765" lon="2.31893">
        <ele>275</ele>
        <time>2017-05-18T14:53:30+02:00</time>
      </trkpt>
      <trkpt lat="43.53767" lon="2.31916">
        <ele>274</ele>
        <time>2017-05-18T14:53:43+02:00</time>
      </trkpt>
      <trkpt lat="43.53766" lon="2.3194">
        <ele>275</ele>
        <time>2017-05-18T14:53:58+02:00</time>
      </trkpt>
      <trkpt lat="43.53768" lon="2.31962">
        <ele>275</ele>
        <time>2017-05-18T14:54:14+02:00</time>
      </trkpt>
      <trkpt lat="43.53773" lon="2.31986">
        <ele>275</ele>
        <time>2017-05-18T14:54:32+02:00</time>
      </trkpt>
      <trkpt lat="43.53774" lon="2.3199">
        <ele>275</ele>
        <time>2017-05-18T14:54:35+02:00</time>
      </trkpt>
      <trkpt lat="43.53774" lon="2.31997">
        <ele>275</ele>
        <time>2017-05-18T14:54:39+02:00</time>
      </trkpt>
      <trkpt lat="43.53776" lon="2.32026">
        <ele>276</ele>
        <time>2017-05-18T14:54:57+02:00</time>
      </trkpt>
      <trkpt lat="43.53777" lon="2.32043">
        <ele>276</ele>
        <time>2017-05-18T14:55:06+02:00</time>
      </trkpt>
      <trkpt lat="43.53781" lon="2.3205">
        <ele>277</ele>
        <time>2017-05-18T14:55:13+02:00</time>
      </trkpt>
      <trkpt lat="43.53792" lon="2.32066">
        <ele>277</ele>
        <time>2017-05-18T14:55:27+02:00</time>
      </trkpt>
      <trkpt lat="43.53796" lon="2.32073">
        <ele>277</ele>
        <time>2017-05-18T14:55:33+02:00</time>
      </trkpt>
      <trkpt lat="43.53805" lon="2.32087">
        <ele>278</ele>
        <time>2017-05-18T14:55:47+02:00</time>
      </trkpt>
      <trkpt lat="43.53813" lon="2.32102">
        <ele>278</ele>
        <time>2017-05-18T14:55:59+02:00</time>
      </trkpt>
      <trkpt lat="43.53814" lon="2.32104">
        <ele>278</ele>
        <time>2017-05-18T14:56:01+02:00</time>
      </trkpt>
      <trkpt lat="43.53819" lon="2.32115">
        <ele>279</ele>
        <time>2017-05-18T14:56:08+02:00</time>
      </trkpt>
      <trkpt lat="43.53821" lon="2.32119">
        <ele>279</ele>
        <time>2017-05-18T14:56:11+02:00</time>
      </trkpt>
      <trkpt lat="43.53832" lon="2.32141">
        <ele>280</ele>
        <time>2017-05-18T14:56:26+02:00</time>
      </trkpt>
      <trkpt lat="43.53842" lon="2.32164">
        <ele>281</ele>
        <time>2017-05-18T14:56:40+02:00</time>
      </trkpt>
      <trkpt lat="43.53848" lon="2.32179">
        <ele>282</ele>
        <time>2017-05-18T14:56:48+02:00</time>
      </trkpt>
      <trkpt lat="43.53859" lon="2.32208">
        <ele>284</ele>
        <time>2017-05-18T14:57:06+02:00</time>
      </trkpt>
      <trkpt lat="43.53871" lon="2.3222">
        <ele>285</ele>
        <time>2017-05-18T14:57:20+02:00</time>
      </trkpt>
      <trkpt lat="43.53872" lon="2.32222">
        <ele>285</ele>
        <time>2017-05-18T14:57:22+02:00</time>
      </trkpt>
      <trkpt lat="43.53876" lon="2.32234">
        <ele>286</ele>
        <time>2017-05-18T14:57:32+02:00</time>
      </trkpt>
      <trkpt lat="43.53879" lon="2.32238">
        <ele>286</ele>
        <time>2017-05-18T14:57:36+02:00</time>
      </trkpt>
      <trkpt lat="43.53889" lon="2.32249">
        <ele>287</ele>
        <time>2017-05-18T14:57:48+02:00</time>
      </trkpt>
      <trkpt lat="43.53896" lon="2.32266">
        <ele>289</ele>
        <time>2017-05-18T14:58:04+02:00</time>
      </trkpt>
      <trkpt lat="43.53899" lon="2.32268">
        <ele>289</ele>
        <time>2017-05-18T14:58:18+02:00</time>
      </trkpt>
      <trkpt lat="43.53899" lon="2.32269">
        <ele>289</ele>
        <time>2017-05-18T14:58:30+02:00</time>
      </trkpt>
      <trkpt lat="43.539" lon="2.32272">
        <ele>289</ele>
        <time>2017-05-18T14:58:46+02:00</time>
      </trkpt>
      <trkpt lat="43.53904" lon="2.32269">
        <ele>289</ele>
        <time>2017-05-18T14:58:56+02:00</time>
      </trkpt>
      <trkpt lat="43.53926" lon="2.32241">
        <ele>289</ele>
        <time>2017-05-18T14:59:17+02:00</time>
      </trkpt>
      <trkpt lat="43.53935" lon="2.32225">
        <ele>289</ele>
        <time>2017-05-18T14:59:33+02:00</time>
      </trkpt>
      <trkpt lat="43.53946" lon="2.32213">
        <ele>289</ele>
        <time>2017-05-18T14:59:49+02:00</time>
      </trkpt>
      <trkpt lat="43.53951" lon="2.32207">
        <ele>290</ele>
        <time>2017-05-18T15:00:04+02:00</time>
      </trkpt>
      <trkpt lat="43.53953" lon="2.32206">
        <ele>290</ele>
        <time>2017-05-18T15:00:11+02:00</time>
      </trkpt>
      <trkpt lat="43.53954" lon="2.32204">
        <ele>290</ele>
        <time>2017-05-18T15:00:13+02:00</time>
      </trkpt>
      <trkpt lat="43.53971" lon="2.32178">
        <ele>289</ele>
        <time>2017-05-18T15:00:30+02:00</time>
      </trkpt>
      <trkpt lat="43.53982" lon="2.32157">
        <ele>288</ele>
        <time>2017-05-18T15:00:44+02:00</time>
      </trkpt>
      <trkpt lat="43.5399" lon="2.32135">
        <ele>286</ele>
        <time>2017-05-18T15:01:00+02:00</time>
      </trkpt>
      <trkpt lat="43.54001" lon="2.32116">
        <ele>284</ele>
        <time>2017-05-18T15:01:14+02:00</time>
      </trkpt>
      <trkpt lat="43.54001" lon="2.32106">
        <ele>283</ele>
        <time>2017-05-18T15:01:26+02:00</time>
      </trkpt>
      <trkpt lat="43.54009" lon="2.32101">
        <ele>283</ele>
        <time>2017-05-18T15:01:34+02:00</time>
      </trkpt>
      <trkpt lat="43.54017" lon="2.32094">
        <ele>283</ele>
        <time>2017-05-18T15:01:46+02:00</time>
      </trkpt>
      <trkpt lat="43.54025" lon="2.32082">
        <ele>282</ele>
        <time>2017-05-18T15:01:57+02:00</time>
      </trkpt>
      <trkpt lat="43.54031" lon="2.32073">
        <ele>283</ele>
        <time>2017-05-18T15:02:09+02:00</time>
      </trkpt>
      <trkpt lat="43.54048" lon="2.32064">
        <ele>284</ele>
        <time>2017-05-18T15:02:25+02:00</time>
      </trkpt>
      <trkpt lat="43.54059" lon="2.32054">
        <ele>284</ele>
        <time>2017-05-18T15:02:40+02:00</time>
      </trkpt>
      <trkpt lat="43.54067" lon="2.32043">
        <ele>285</ele>
        <time>2017-05-18T15:02:53+02:00</time>
      </trkpt>
      <trkpt lat="43.5408" lon="2.32023">
        <ele>285</ele>
        <time>2017-05-18T15:03:08+02:00</time>
      </trkpt>
      <trkpt lat="43.54092" lon="2.32001">
        <ele>285</ele>
        <time>2017-05-18T15:03:24+02:00</time>
      </trkpt>
      <trkpt lat="43.54102" lon="2.31978">
        <ele>284</ele>
        <time>2017-05-18T15:03:38+02:00</time>
      </trkpt>
      <trkpt lat="43.54112" lon="2.31962">
        <ele>284</ele>
        <time>2017-05-18T15:03:49+02:00</time>
      </trkpt>
      <trkpt lat="43.5413" lon="2.31931">
        <ele>284</ele>
        <time>2017-05-18T15:04:06+02:00</time>
      </trkpt>
      <trkpt lat="43.54132" lon="2.31928">
        <ele>284</ele>
        <time>2017-05-18T15:04:07+02:00</time>
      </trkpt>
      <trkpt lat="43.54146" lon="2.31896">
        <ele>283</ele>
        <time>2017-05-18T15:04:23+02:00</time>
      </trkpt>
      <trkpt lat="43.54154" lon="2.31879">
        <ele>283</ele>
        <time>2017-05-18T15:04:33+02:00</time>
      </trkpt>
      <trkpt lat="43.54155" lon="2.31878">
        <ele>283</ele>
        <time>2017-05-18T15:04:34+02:00</time>
      </trkpt>
      <trkpt lat="43.54163" lon="2.31866">
        <ele>283</ele>
        <time>2017-05-18T15:04:43+02:00</time>
      </trkpt>
      <trkpt lat="43.54163" lon="2.31861">
        <ele>282</ele>
        <time>2017-05-18T15:04:46+02:00</time>
      </trkpt>
      <trkpt lat="43.54171" lon="2.31851">
        <ele>282</ele>
        <time>2017-05-18T15:04:54+02:00</time>
      </trkpt>
      <trkpt lat="43.54171" lon="2.31849">
        <ele>282</ele>
        <time>2017-05-18T15:04:55+02:00</time>
      </trkpt>
      <trkpt lat="43.54179" lon="2.3184">
        <ele>282</ele>
        <time>2017-05-18T15:05:02+02:00</time>
      </trkpt>
      <trkpt lat="43.54196" lon="2.31819">
        <ele>282</ele>
        <time>2017-05-18T15:05:10+02:00</time>
      </trkpt>
      <trkpt lat="43.54202" lon="2.31815">
        <ele>282</ele>
        <time>2017-05-18T15:05:14+02:00</time>
      </trkpt>
      <trkpt lat="43.54206" lon="2.31812">
        <ele>282</ele>
        <time>2017-05-18T15:05:18+02:00</time>
      </trkpt>
      <trkpt lat="43.54209" lon="2.3181">
        <ele>282</ele>
        <time>2017-05-18T15:05:20+02:00</time>
      </trkpt>
      <trkpt lat="43.54215" lon="2.31804">
        <ele>282</ele>
        <time>2017-05-18T15:05:24+02:00</time>
      </trkpt>
      <trkpt lat="43.54218" lon="2.318">
        <ele>283</ele>
        <time>2017-05-18T15:05:30+02:00</time>
      </trkpt>
      <trkpt lat="43.54223" lon="2.31793">
        <ele>282</ele>
        <time>2017-05-18T15:05:35+02:00</time>
      </trkpt>
      <trkpt lat="43.54228" lon="2.31786">
        <ele>282</ele>
        <time>2017-05-18T15:05:40+02:00</time>
      </trkpt>
      <trkpt lat="43.54234" lon="2.31778">
        <ele>282</ele>
        <time>2017-05-18T15:05:52+02:00</time>
      </trkpt>
      <trkpt lat="43.54237" lon="2.31775">
        <ele>282</ele>
        <time>2017-05-18T15:06:10+02:00</time>
      </trkpt>
      <trkpt lat="43.54238" lon="2.31773">
        <ele>282</ele>
        <time>2017-05-18T15:06:14+02:00</time>
      </trkpt>
      <trkpt lat="43.54247" lon="2.31779">
        <ele>283</ele>
        <time>2017-05-18T15:06:24+02:00</time>
      </trkpt>
      <trkpt lat="43.54251" lon="2.31781">
        <ele>284</ele>
        <time>2017-05-18T15:06:28+02:00</time>
      </trkpt>
      <trkpt lat="43.54257" lon="2.31784">
        <ele>284</ele>
        <time>2017-05-18T15:06:41+02:00</time>
      </trkpt>
      <trkpt lat="43.54258" lon="2.31785">
        <ele>284</ele>
        <time>2017-05-18T15:06:58+02:00</time>
      </trkpt>
      <trkpt lat="43.54259" lon="2.3178">
        <ele>284</ele>
        <time>2017-05-18T15:07:04+02:00</time>
      </trkpt>
      <trkpt lat="43.54255" lon="2.31765">
        <ele>283</ele>
        <time>2017-05-18T15:07:18+02:00</time>
      </trkpt>
      <trkpt lat="43.54253" lon="2.31759">
        <ele>283</ele>
        <time>2017-05-18T15:07:32+02:00</time>
      </trkpt>
      <trkpt lat="43.54248" lon="2.31759">
        <ele>282</ele>
        <time>2017-05-18T15:07:56+02:00</time>
      </trkpt>
      <trkpt lat="43.54239" lon="2.31761">
        <ele>282</ele>
        <time>2017-05-18T15:08:10+02:00</time>
      </trkpt>
      <trkpt lat="43.54237" lon="2.31763">
        <ele>282</ele>
        <time>2017-05-18T15:08:25+02:00</time>
      </trkpt>
      <trkpt lat="43.5425" lon="2.31748">
        <ele>282</ele>
        <time>2017-05-18T15:08:44+02:00</time>
      </trkpt>
      <trkpt lat="43.5426" lon="2.31731">
        <ele>281</ele>
        <time>2017-05-18T15:08:59+02:00</time>
      </trkpt>
      <trkpt lat="43.54265" lon="2.31724">
        <ele>281</ele>
        <time>2017-05-18T15:09:07+02:00</time>
      </trkpt>
      <trkpt lat="43.54269" lon="2.3172">
        <ele>281</ele>
        <time>2017-05-18T15:09:22+02:00</time>
      </trkpt>
      <trkpt lat="43.54273" lon="2.31711">
        <ele>281</ele>
        <time>2017-05-18T15:09:34+02:00</time>
      </trkpt>
      <trkpt lat="43.54275" lon="2.31706">
        <ele>281</ele>
        <time>2017-05-18T15:09:39+02:00</time>
      </trkpt>
      <trkpt lat="43.54275" lon="2.31698">
        <ele>280</ele>
        <time>2017-05-18T15:09:44+02:00</time>
      </trkpt>
      <trkpt lat="43.54277" lon="2.31694">
        <ele>280</ele>
        <time>2017-05-18T15:09:47+02:00</time>
      </trkpt>
      <trkpt lat="43.54288" lon="2.31687">
        <ele>280</ele>
        <time>2017-05-18T15:09:57+02:00</time>
      </trkpt>
      <trkpt lat="43.54293" lon="2.31683">
        <ele>280</ele>
        <time>2017-05-18T15:10:02+02:00</time>
      </trkpt>
      <trkpt lat="43.54308" lon="2.31663">
        <ele>279</ele>
        <time>2017-05-18T15:10:18+02:00</time>
      </trkpt>
      <trkpt lat="43.54327" lon="2.31635">
        <ele>278</ele>
        <time>2017-05-18T15:10:37+02:00</time>
      </trkpt>
      <trkpt lat="43.5434" lon="2.31617">
        <ele>276</ele>
        <time>2017-05-18T15:10:51+02:00</time>
      </trkpt>
      <trkpt lat="43.54357" lon="2.31589">
        <ele>275</ele>
        <time>2017-05-18T15:11:07+02:00</time>
      </trkpt>
      <trkpt lat="43.54384" lon="2.31566">
        <ele>274</ele>
        <time>2017-05-18T15:11:27+02:00</time>
      </trkpt>
      <trkpt lat="43.54395" lon="2.31554">
        <ele>273</ele>
        <time>2017-05-18T15:11:41+02:00</time>
      </trkpt>
      <trkpt lat="43.54402" lon="2.31539">
        <ele>273</ele>
        <time>2017-05-18T15:11:54+02:00</time>
      </trkpt>
      <trkpt lat="43.54407" lon="2.3153">
        <ele>272</ele>
        <time>2017-05-18T15:12:03+02:00</time>
      </trkpt>
      <trkpt lat="43.54416" lon="2.31511">
        <ele>272</ele>
        <time>2017-05-18T15:12:15+02:00</time>
      </trkpt>
      <trkpt lat="43.54426" lon="2.31492">
        <ele>271</ele>
        <time>2017-05-18T15:12:27+02:00</time>
      </trkpt>
      <trkpt lat="43.54432" lon="2.31478">
        <ele>270</ele>
        <time>2017-05-18T15:12:38+02:00</time>
      </trkpt>
      <trkpt lat="43.54435" lon="2.31473">
        <ele>270</ele>
        <time>2017-05-18T15:12:45+02:00</time>
      </trkpt>
      <trkpt lat="43.54444" lon="2.31461">
        <ele>269</ele>
        <time>2017-05-18T15:12:50+02:00</time>
      </trkpt>
      <trkpt lat="43.5445" lon="2.31448">
        <ele>268</ele>
        <time>2017-05-18T15:12:56+02:00</time>
      </trkpt>
      <trkpt lat="43.54454" lon="2.31442">
        <ele>268</ele>
        <time>2017-05-18T15:13:00+02:00</time>
      </trkpt>
      <trkpt lat="43.54471" lon="2.31408">
        <ele>267</ele>
        <time>2017-05-18T15:13:17+02:00</time>
      </trkpt>
      <trkpt lat="43.54486" lon="2.3138">
        <ele>267</ele>
        <time>2017-05-18T15:13:33+02:00</time>
      </trkpt>
      <trkpt lat="43.545" lon="2.3135">
        <ele>266</ele>
        <time>2017-05-18T15:13:48+02:00</time>
      </trkpt>
      <trkpt lat="43.54503" lon="2.31342">
        <ele>266</ele>
        <time>2017-05-18T15:13:52+02:00</time>
      </trkpt>
      <trkpt lat="43.54508" lon="2.31333">
        <ele>266</ele>
        <time>2017-05-18T15:13:58+02:00</time>
      </trkpt>
      <trkpt lat="43.54511" lon="2.31325">
        <ele>265</ele>
        <time>2017-05-18T15:14:03+02:00</time>
      </trkpt>
      <trkpt lat="43.54514" lon="2.31317">
        <ele>265</ele>
        <time>2017-05-18T15:14:08+02:00</time>
      </trkpt>
      <trkpt lat="43.54518" lon="2.31306">
        <ele>264</ele>
        <time>2017-05-18T15:14:17+02:00</time>
      </trkpt>
      <trkpt lat="43.54526" lon="2.31284">
        <ele>262</ele>
        <time>2017-05-18T15:14:32+02:00</time>
      </trkpt>
      <trkpt lat="43.54538" lon="2.31263">
        <ele>261</ele>
        <time>2017-05-18T15:14:46+02:00</time>
      </trkpt>
      <trkpt lat="43.54546" lon="2.31244">
        <ele>260</ele>
        <time>2017-05-18T15:14:57+02:00</time>
      </trkpt>
      <trkpt lat="43.54549" lon="2.31232">
        <ele>259</ele>
        <time>2017-05-18T15:15:07+02:00</time>
      </trkpt>
      <trkpt lat="43.54554" lon="2.31217">
        <ele>258</ele>
        <time>2017-05-18T15:15:20+02:00</time>
      </trkpt>
      <trkpt lat="43.5456" lon="2.31206">
        <ele>257</ele>
        <time>2017-05-18T15:15:33+02:00</time>
      </trkpt>
      <trkpt lat="43.54554" lon="2.31196">
        <ele>257</ele>
        <time>2017-05-18T15:15:45+02:00</time>
      </trkpt>
      <trkpt lat="43.54559" lon="2.31192">
        <ele>256</ele>
        <time>2017-05-18T15:15:58+02:00</time>
      </trkpt>
      <trkpt lat="43.54575" lon="2.31169">
        <ele>254</ele>
        <time>2017-05-18T15:16:09+02:00</time>
      </trkpt>
      <trkpt lat="43.5458" lon="2.31168">
        <ele>254</ele>
        <time>2017-05-18T15:16:21+02:00</time>
      </trkpt>
      <trkpt lat="43.54584" lon="2.31171">
        <ele>254</ele>
        <time>2017-05-18T15:16:28+02:00</time>
      </trkpt>
      <trkpt lat="43.54594" lon="2.3118">
        <ele>255</ele>
        <time>2017-05-18T15:16:41+02:00</time>
      </trkpt>
      <trkpt lat="43.546" lon="2.3118">
        <ele>255</ele>
        <time>2017-05-18T15:16:55+02:00</time>
      </trkpt>
      <trkpt lat="43.54606" lon="2.31193">
        <ele>256</ele>
        <time>2017-05-18T15:17:06+02:00</time>
      </trkpt>
      <trkpt lat="43.5461" lon="2.31197">
        <ele>257</ele>
        <time>2017-05-18T15:17:18+02:00</time>
      </trkpt>
      <trkpt lat="43.54611" lon="2.31197">
        <ele>257</ele>
        <time>2017-05-18T15:17:23+02:00</time>
      </trkpt>
      <trkpt lat="43.54617" lon="2.31187">
        <ele>256</ele>
        <time>2017-05-18T15:17:34+02:00</time>
      </trkpt>
      <trkpt lat="43.54621" lon="2.31173">
        <ele>256</ele>
        <time>2017-05-18T15:17:47+02:00</time>
      </trkpt>
      <trkpt lat="43.54632" lon="2.31172">
        <ele>257</ele>
        <time>2017-05-18T15:18:00+02:00</time>
      </trkpt>
      <trkpt lat="43.54635" lon="2.31168">
        <ele>257</ele>
        <time>2017-05-18T15:18:02+02:00</time>
      </trkpt>
      <trkpt lat="43.5464" lon="2.31165">
        <ele>257</ele>
        <time>2017-05-18T15:18:05+02:00</time>
      </trkpt>
      <trkpt lat="43.54649" lon="2.31144">
        <ele>257</ele>
        <time>2017-05-18T15:18:20+02:00</time>
      </trkpt>
      <trkpt lat="43.54652" lon="2.31132">
        <ele>256</ele>
        <time>2017-05-18T15:18:32+02:00</time>
      </trkpt>
      <trkpt lat="43.54651" lon="2.31128">
        <ele>256</ele>
        <time>2017-05-18T15:18:36+02:00</time>
      </trkpt>
      <trkpt lat="43.54647" lon="2.31104">
        <ele>256</ele>
        <time>2017-05-18T15:18:51+02:00</time>
      </trkpt>
      <trkpt lat="43.54646" lon="2.31091">
        <ele>255</ele>
        <time>2017-05-18T15:18:59+02:00</time>
      </trkpt>
      <trkpt lat="43.54645" lon="2.31078">
        <ele>255</ele>
        <time>2017-05-18T15:19:07+02:00</time>
      </trkpt>
      <trkpt lat="43.54645" lon="2.31066">
        <ele>254</ele>
        <time>2017-05-18T15:19:14+02:00</time>
      </trkpt>
      <trkpt lat="43.54646" lon="2.31041">
        <ele>252</ele>
        <time>2017-05-18T15:19:30+02:00</time>
      </trkpt>
      <trkpt lat="43.54644" lon="2.31029">
        <ele>252</ele>
        <time>2017-05-18T15:19:39+02:00</time>
      </trkpt>
      <trkpt lat="43.54641" lon="2.31018">
        <ele>251</ele>
        <time>2017-05-18T15:19:47+02:00</time>
      </trkpt>
      <trkpt lat="43.54639" lon="2.31001">
        <ele>250</ele>
        <time>2017-05-18T15:19:59+02:00</time>
      </trkpt>
      <trkpt lat="43.54637" lon="2.30982">
        <ele>249</ele>
        <time>2017-05-18T15:20:12+02:00</time>
      </trkpt>
      <trkpt lat="43.54636" lon="2.30985">
        <ele>249</ele>
        <time>2017-05-18T15:20:20+02:00</time>
      </trkpt>
      <trkpt lat="43.54631" lon="2.31002">
        <ele>249</ele>
        <time>2017-05-18T15:20:37+02:00</time>
      </trkpt>
      <trkpt lat="43.54625" lon="2.31017">
        <ele>250</ele>
        <time>2017-05-18T15:20:52+02:00</time>
      </trkpt>
      <trkpt lat="43.54616" lon="2.31031">
        <ele>250</ele>
        <time>2017-05-18T15:21:05+02:00</time>
      </trkpt>
      <trkpt lat="43.54612" lon="2.31023">
        <ele>250</ele>
        <time>2017-05-18T15:21:17+02:00</time>
      </trkpt>
      <trkpt lat="43.54608" lon="2.31012">
        <ele>249</ele>
        <time>2017-05-18T15:21:29+02:00</time>
      </trkpt>
      <trkpt lat="43.54604" lon="2.31005">
        <ele>248</ele>
        <time>2017-05-18T15:21:41+02:00</time>
      </trkpt>
      <trkpt lat="43.54603" lon="2.31004">
        <ele>248</ele>
        <time>2017-05-18T15:21:43+02:00</time>
      </trkpt>
      <trkpt lat="43.54597" lon="2.31002">
        <ele>248</ele>
        <time>2017-05-18T15:21:50+02:00</time>
      </trkpt>
      <trkpt lat="43.54592" lon="2.31001">
        <ele>248</ele>
        <time>2017-05-18T15:21:55+02:00</time>
      </trkpt>
      <trkpt lat="43.54589" lon="2.30988">
        <ele>247</ele>
        <time>2017-05-18T15:22:08+02:00</time>
      </trkpt>
      <trkpt lat="43.54594" lon="2.30962">
        <ele>246</ele>
        <time>2017-05-18T15:22:19+02:00</time>
      </trkpt>
      <trkpt lat="43.54599" lon="2.30915">
        <ele>245</ele>
        <time>2017-05-18T15:22:32+02:00</time>
      </trkpt>
      <trkpt lat="43.54565" lon="2.30895">
        <ele>244</ele>
        <time>2017-05-18T15:22:45+02:00</time>
      </trkpt>
      <trkpt lat="43.54553" lon="2.30881">
        <ele>244</ele>
        <time>2017-05-18T15:22:57+02:00</time>
      </trkpt>
      <trkpt lat="43.54551" lon="2.3088">
        <ele>244</ele>
        <time>2017-05-18T15:22:58+02:00</time>
      </trkpt>
      <trkpt lat="43.5455" lon="2.30877">
        <ele>244</ele>
        <time>2017-05-18T15:23:00+02:00</time>
      </trkpt>
      <trkpt lat="43.54535" lon="2.30866">
        <ele>244</ele>
        <time>2017-05-18T15:23:12+02:00</time>
      </trkpt>
      <trkpt lat="43.54522" lon="2.30854">
        <ele>244</ele>
        <time>2017-05-18T15:23:25+02:00</time>
      </trkpt>
      <trkpt lat="43.54518" lon="2.30849">
        <ele>244</ele>
        <time>2017-05-18T15:23:29+02:00</time>
      </trkpt>
      <trkpt lat="43.54511" lon="2.3084">
        <ele>244</ele>
        <time>2017-05-18T15:23:35+02:00</time>
      </trkpt>
      <trkpt lat="43.54501" lon="2.30808">
        <ele>244</ele>
        <time>2017-05-18T15:23:51+02:00</time>
      </trkpt>
      <trkpt lat="43.5448" lon="2.30804">
        <ele>245</ele>
        <time>2017-05-18T15:24:09+02:00</time>
      </trkpt>
      <trkpt lat="43.54454" lon="2.30812">
        <ele>247</ele>
        <time>2017-05-18T15:24:31+02:00</time>
      </trkpt>
      <trkpt lat="43.54428" lon="2.30817">
        <ele>249</ele>
        <time>2017-05-18T15:24:53+02:00</time>
      </trkpt>
      <trkpt lat="43.54409" lon="2.30819">
        <ele>250</ele>
        <time>2017-05-18T15:25:10+02:00</time>
      </trkpt>
      <trkpt lat="43.54399" lon="2.30819">
        <ele>249</ele>
        <time>2017-05-18T15:25:20+02:00</time>
      </trkpt>
      <trkpt lat="43.54381" lon="2.30822">
        <ele>249</ele>
        <time>2017-05-18T15:25:36+02:00</time>
      </trkpt>
      <trkpt lat="43.54365" lon="2.30829">
        <ele>248</ele>
        <time>2017-05-18T15:25:50+02:00</time>
      </trkpt>
      <trkpt lat="43.54348" lon="2.30848">
        <ele>248</ele>
        <time>2017-05-18T15:26:05+02:00</time>
      </trkpt>
      <trkpt lat="43.54332" lon="2.30869">
        <ele>248</ele>
        <time>2017-05-18T15:26:20+02:00</time>
      </trkpt>
      <trkpt lat="43.54319" lon="2.30888">
        <ele>249</ele>
        <time>2017-05-18T15:26:35+02:00</time>
      </trkpt>
      <trkpt lat="43.54308" lon="2.309">
        <ele>250</ele>
        <time>2017-05-18T15:26:47+02:00</time>
      </trkpt>
      <trkpt lat="43.54306" lon="2.30903">
        <ele>250</ele>
        <time>2017-05-18T15:26:49+02:00</time>
      </trkpt>
      <trkpt lat="43.54295" lon="2.30909">
        <ele>250</ele>
        <time>2017-05-18T15:26:57+02:00</time>
      </trkpt>
      <trkpt lat="43.54291" lon="2.30904">
        <ele>250</ele>
        <time>2017-05-18T15:27:03+02:00</time>
      </trkpt>
      <trkpt lat="43.5429" lon="2.30902">
        <ele>250</ele>
        <time>2017-05-18T15:27:05+02:00</time>
      </trkpt>
      <trkpt lat="43.54288" lon="2.30898">
        <ele>250</ele>
        <time>2017-05-18T15:27:09+02:00</time>
      </trkpt>
      <trkpt lat="43.54286" lon="2.30895">
        <ele>250</ele>
        <time>2017-05-18T15:27:11+02:00</time>
      </trkpt>
      <trkpt lat="43.54278" lon="2.3088">
        <ele>249</ele>
        <time>2017-05-18T15:27:24+02:00</time>
      </trkpt>
      <trkpt lat="43.54261" lon="2.30868">
        <ele>249</ele>
        <time>2017-05-18T15:27:40+02:00</time>
      </trkpt>
      <trkpt lat="43.54247" lon="2.30861">
        <ele>249</ele>
        <time>2017-05-18T15:27:52+02:00</time>
      </trkpt>
      <trkpt lat="43.54229" lon="2.30853">
        <ele>249</ele>
        <time>2017-05-18T15:28:08+02:00</time>
      </trkpt>
      <trkpt lat="43.54211" lon="2.30843">
        <ele>249</ele>
        <time>2017-05-18T15:28:23+02:00</time>
      </trkpt>
      <trkpt lat="43.54188" lon="2.30834">
        <ele>250</ele>
        <time>2017-05-18T15:28:38+02:00</time>
      </trkpt>
      <trkpt lat="43.54171" lon="2.30831">
        <ele>250</ele>
        <time>2017-05-18T15:28:52+02:00</time>
      </trkpt>
      <trkpt lat="43.54168" lon="2.3083">
        <ele>250</ele>
        <time>2017-05-18T15:28:56+02:00</time>
      </trkpt>
      <trkpt lat="43.54149" lon="2.30827">
        <ele>250</ele>
        <time>2017-05-18T15:29:10+02:00</time>
      </trkpt>
      <trkpt lat="43.54133" lon="2.30824">
        <ele>249</ele>
        <time>2017-05-18T15:29:22+02:00</time>
      </trkpt>
      <trkpt lat="43.54116" lon="2.3082">
        <ele>249</ele>
        <time>2017-05-18T15:29:35+02:00</time>
      </trkpt>
      <trkpt lat="43.54111" lon="2.30818">
        <ele>249</ele>
        <time>2017-05-18T15:29:39+02:00</time>
      </trkpt>
      <trkpt lat="43.54107" lon="2.30815">
        <ele>249</ele>
        <time>2017-05-18T15:29:44+02:00</time>
      </trkpt>
      <trkpt lat="43.541" lon="2.3081">
        <ele>248</ele>
        <time>2017-05-18T15:29:50+02:00</time>
      </trkpt>
      <trkpt lat="43.54091" lon="2.30804">
        <ele>248</ele>
        <time>2017-05-18T15:30:00+02:00</time>
      </trkpt>
      <trkpt lat="43.54072" lon="2.30791">
        <ele>247</ele>
        <time>2017-05-18T15:30:15+02:00</time>
      </trkpt>
      <trkpt lat="43.5407" lon="2.30789">
        <ele>247</ele>
        <time>2017-05-18T15:30:17+02:00</time>
      </trkpt>
      <trkpt lat="43.54056" lon="2.30778">
        <ele>246</ele>
        <time>2017-05-18T15:30:31+02:00</time>
      </trkpt>
      <trkpt lat="43.54054" lon="2.30777">
        <ele>246</ele>
        <time>2017-05-18T15:30:34+02:00</time>
      </trkpt>
      <trkpt lat="43.54046" lon="2.30773">
        <ele>246</ele>
        <time>2017-05-18T15:30:40+02:00</time>
      </trkpt>
      <trkpt lat="43.54038" lon="2.3076">
        <ele>245</ele>
        <time>2017-05-18T15:30:51+02:00</time>
      </trkpt>
      <trkpt lat="43.54037" lon="2.30746">
        <ele>244</ele>
        <time>2017-05-18T15:31:05+02:00</time>
      </trkpt>
      <trkpt lat="43.54037" lon="2.30743">
        <ele>244</ele>
        <time>2017-05-18T15:31:09+02:00</time>
      </trkpt>
      <trkpt lat="43.54038" lon="2.30728">
        <ele>243</ele>
        <time>2017-05-18T15:31:18+02:00</time>
      </trkpt>
      <trkpt lat="43.5404" lon="2.30713">
        <ele>242</ele>
        <time>2017-05-18T15:31:28+02:00</time>
      </trkpt>
      <trkpt lat="43.54051" lon="2.30688">
        <ele>241</ele>
        <time>2017-05-18T15:31:46+02:00</time>
      </trkpt>
      <trkpt lat="43.54053" lon="2.30683">
        <ele>241</ele>
        <time>2017-05-18T15:31:48+02:00</time>
      </trkpt>
      <trkpt lat="43.54059" lon="2.30659">
        <ele>240</ele>
        <time>2017-05-18T15:32:02+02:00</time>
      </trkpt>
      <trkpt lat="43.54061" lon="2.30651">
        <ele>240</ele>
        <time>2017-05-18T15:32:07+02:00</time>
      </trkpt>
      <trkpt lat="43.5407" lon="2.30618">
        <ele>239</ele>
        <time>2017-05-18T15:32:24+02:00</time>
      </trkpt>
      <trkpt lat="43.54077" lon="2.30592">
        <ele>238</ele>
        <time>2017-05-18T15:32:40+02:00</time>
      </trkpt>
      <trkpt lat="43.54077" lon="2.3059">
        <ele>238</ele>
        <time>2017-05-18T15:32:41+02:00</time>
      </trkpt>
      <trkpt lat="43.5408" lon="2.3057">
        <ele>237</ele>
        <time>2017-05-18T15:32:51+02:00</time>
      </trkpt>
      <trkpt lat="43.54083" lon="2.30551">
        <ele>236</ele>
        <time>2017-05-18T15:33:03+02:00</time>
      </trkpt>
      <trkpt lat="43.54088" lon="2.30525">
        <ele>235</ele>
        <time>2017-05-18T15:33:18+02:00</time>
      </trkpt>
      <trkpt lat="43.54094" lon="2.30498">
        <ele>234</ele>
        <time>2017-05-18T15:33:33+02:00</time>
      </trkpt>
      <trkpt lat="43.54095" lon="2.30488">
        <ele>234</ele>
        <time>2017-05-18T15:33:38+02:00</time>
      </trkpt>
      <trkpt lat="43.54096" lon="2.30474">
        <ele>234</ele>
        <time>2017-05-18T15:33:45+02:00</time>
      </trkpt>
      <trkpt lat="43.54099" lon="2.30445">
        <ele>233</ele>
        <time>2017-05-18T15:34:01+02:00</time>
      </trkpt>
      <trkpt lat="43.541" lon="2.30443">
        <ele>233</ele>
        <time>2017-05-18T15:34:02+02:00</time>
      </trkpt>
      <trkpt lat="43.54099" lon="2.30429">
        <ele>232</ele>
        <time>2017-05-18T15:34:12+02:00</time>
      </trkpt>
      <trkpt lat="43.541" lon="2.30415">
        <ele>232</ele>
        <time>2017-05-18T15:34:20+02:00</time>
      </trkpt>
      <trkpt lat="43.54099" lon="2.30411">
        <ele>231</ele>
        <time>2017-05-18T15:34:22+02:00</time>
      </trkpt>
      <trkpt lat="43.54098" lon="2.30392">
        <ele>231</ele>
        <time>2017-05-18T15:34:31+02:00</time>
      </trkpt>
      <trkpt lat="43.54098" lon="2.30379">
        <ele>231</ele>
        <time>2017-05-18T15:34:37+02:00</time>
      </trkpt>
      <trkpt lat="43.54099" lon="2.30364">
        <ele>230</ele>
        <time>2017-05-18T15:34:44+02:00</time>
      </trkpt>
      <trkpt lat="43.54099" lon="2.30335">
        <ele>230</ele>
        <time>2017-05-18T15:35:00+02:00</time>
      </trkpt>
      <trkpt lat="43.54099" lon="2.30333">
        <ele>229</ele>
        <time>2017-05-18T15:35:01+02:00</time>
      </trkpt>
      <trkpt lat="43.54098" lon="2.30309">
        <ele>229</ele>
        <time>2017-05-18T15:35:14+02:00</time>
      </trkpt>
      <trkpt lat="43.54096" lon="2.30303">
        <ele>229</ele>
        <time>2017-05-18T15:35:18+02:00</time>
      </trkpt>
      <trkpt lat="43.54094" lon="2.30297">
        <ele>229</ele>
        <time>2017-05-18T15:35:21+02:00</time>
      </trkpt>
      <trkpt lat="43.54086" lon="2.30281">
        <ele>228</ele>
        <time>2017-05-18T15:35:33+02:00</time>
      </trkpt>
      <trkpt lat="43.54075" lon="2.30255">
        <ele>228</ele>
        <time>2017-05-18T15:35:52+02:00</time>
      </trkpt>
      <trkpt lat="43.54071" lon="2.3023">
        <ele>228</ele>
        <time>2017-05-18T15:36:07+02:00</time>
      </trkpt>
      <trkpt lat="43.54069" lon="2.30216">
        <ele>228</ele>
        <time>2017-05-18T15:36:15+02:00</time>
      </trkpt>
      <trkpt lat="43.54066" lon="2.30199">
        <ele>227</ele>
        <time>2017-05-18T15:36:25+02:00</time>
      </trkpt>
      <trkpt lat="43.54065" lon="2.30164">
        <ele>227</ele>
        <time>2017-05-18T15:36:43+02:00</time>
      </trkpt>
      <trkpt lat="43.54064" lon="2.30161">
        <ele>227</ele>
        <time>2017-05-18T15:36:45+02:00</time>
      </trkpt>
      <trkpt lat="43.54064" lon="2.30147">
        <ele>227</ele>
        <time>2017-05-18T15:36:53+02:00</time>
      </trkpt>
      <trkpt lat="43.54065" lon="2.30132">
        <ele>227</ele>
        <time>2017-05-18T15:37:00+02:00</time>
      </trkpt>
      <trkpt lat="43.54065" lon="2.30129">
        <ele>226</ele>
        <time>2017-05-18T15:37:02+02:00</time>
      </trkpt>
      <trkpt lat="43.54065" lon="2.30122">
        <ele>226</ele>
        <time>2017-05-18T15:37:05+02:00</time>
      </trkpt>
      <trkpt lat="43.54064" lon="2.30115">
        <ele>226</ele>
        <time>2017-05-18T15:37:09+02:00</time>
      </trkpt>
      <trkpt lat="43.54063" lon="2.30088">
        <ele>225</ele>
        <time>2017-05-18T15:37:24+02:00</time>
      </trkpt>
      <trkpt lat="43.54064" lon="2.30061">
        <ele>225</ele>
        <time>2017-05-18T15:37:40+02:00</time>
      </trkpt>
      <trkpt lat="43.54065" lon="2.30039">
        <ele>224</ele>
        <time>2017-05-18T15:37:52+02:00</time>
      </trkpt>
      <trkpt lat="43.54063" lon="2.30007">
        <ele>223</ele>
        <time>2017-05-18T15:38:09+02:00</time>
      </trkpt>
      <trkpt lat="43.54063" lon="2.29983">
        <ele>223</ele>
        <time>2017-05-18T15:38:24+02:00</time>
      </trkpt>
      <trkpt lat="43.54065" lon="2.29961">
        <ele>222</ele>
        <time>2017-05-18T15:38:36+02:00</time>
      </trkpt>
      <trkpt lat="43.54064" lon="2.29932">
        <ele>220</ele>
        <time>2017-05-18T15:38:54+02:00</time>
      </trkpt>
      <trkpt lat="43.54059" lon="2.29906">
        <ele>219</ele>
        <time>2017-05-18T15:39:10+02:00</time>
      </trkpt>
      <trkpt lat="43.54058" lon="2.29897">
        <ele>219</ele>
        <time>2017-05-18T15:39:15+02:00</time>
      </trkpt>
      <trkpt lat="43.54052" lon="2.29875">
        <ele>217</ele>
        <time>2017-05-18T15:39:30+02:00</time>
      </trkpt>
      <trkpt lat="43.54047" lon="2.29856">
        <ele>216</ele>
        <time>2017-05-18T15:39:41+02:00</time>
      </trkpt>
      <trkpt lat="43.54042" lon="2.29834">
        <ele>215</ele>
        <time>2017-05-18T15:39:56+02:00</time>
      </trkpt>
      <trkpt lat="43.54046" lon="2.29809">
        <ele>215</ele>
        <time>2017-05-18T15:40:11+02:00</time>
      </trkpt>
      <trkpt lat="43.54053" lon="2.2979">
        <ele>215</ele>
        <time>2017-05-18T15:40:25+02:00</time>
      </trkpt>
      <trkpt lat="43.54062" lon="2.29772">
        <ele>215</ele>
        <time>2017-05-18T15:40:40+02:00</time>
      </trkpt>
      <trkpt lat="43.54062" lon="2.29768">
        <ele>215</ele>
        <time>2017-05-18T15:40:44+02:00</time>
      </trkpt>
      <trkpt lat="43.54059" lon="2.29755">
        <ele>214</ele>
        <time>2017-05-18T15:40:57+02:00</time>
      </trkpt>
      <trkpt lat="43.54059" lon="2.29744">
        <ele>213</ele>
        <time>2017-05-18T15:41:13+02:00</time>
      </trkpt>
      <trkpt lat="43.54057" lon="2.29743">
        <ele>213</ele>
        <time>2017-05-18T15:41:15+02:00</time>
      </trkpt>
      <trkpt lat="43.54057" lon="2.29739">
        <ele>213</ele>
        <time>2017-05-18T15:41:26+02:00</time>
      </trkpt>
      <trkpt lat="43.54056" lon="2.29738">
        <ele>212</ele>
        <time>2017-05-18T15:41:29+02:00</time>
      </trkpt>
      <trkpt lat="43.54048" lon="2.29728">
        <ele>211</ele>
        <time>2017-05-18T15:41:42+02:00</time>
      </trkpt>
      <trkpt lat="43.54046" lon="2.29725">
        <ele>210</ele>
        <time>2017-05-18T15:41:45+02:00</time>
      </trkpt>
      <trkpt lat="43.54038" lon="2.29725">
        <ele>210</ele>
        <time>2017-05-18T15:41:50+02:00</time>
      </trkpt>
      <trkpt lat="43.54034" lon="2.29724">
        <ele>210</ele>
        <time>2017-05-18T15:41:54+02:00</time>
      </trkpt>
      <trkpt lat="43.5403" lon="2.29722">
        <ele>209</ele>
        <time>2017-05-18T15:41:59+02:00</time>
      </trkpt>
      <trkpt lat="43.54026" lon="2.29718">
        <ele>209</ele>
        <time>2017-05-18T15:42:03+02:00</time>
      </trkpt>
      <trkpt lat="43.54025" lon="2.29714">
        <ele>208</ele>
        <time>2017-05-18T15:42:06+02:00</time>
      </trkpt>
      <trkpt lat="43.54014" lon="2.29715">
        <ele>208</ele>
        <time>2017-05-18T15:42:18+02:00</time>
      </trkpt>
      <trkpt lat="43.54006" lon="2.29724">
        <ele>208</ele>
        <time>2017-05-18T15:42:30+02:00</time>
      </trkpt>
      <trkpt lat="43.53998" lon="2.29735">
        <ele>209</ele>
        <time>2017-05-18T15:42:43+02:00</time>
      </trkpt>
      <trkpt lat="43.53995" lon="2.29746">
        <ele>210</ele>
        <time>2017-05-18T15:42:56+02:00</time>
      </trkpt>
      <trkpt lat="43.53992" lon="2.29746">
        <ele>210</ele>
        <time>2017-05-18T15:43:00+02:00</time>
      </trkpt>
      <trkpt lat="43.53988" lon="2.29744">
        <ele>210</ele>
        <time>2017-05-18T15:43:08+02:00</time>
      </trkpt>
      <trkpt lat="43.53987" lon="2.29729">
        <ele>210</ele>
        <time>2017-05-18T15:43:25+02:00</time>
      </trkpt>
      <trkpt lat="43.53986" lon="2.29727">
        <ele>210</ele>
        <time>2017-05-18T15:43:27+02:00</time>
      </trkpt>
      <trkpt lat="43.53984" lon="2.29712">
        <ele>210</ele>
        <time>2017-05-18T15:43:40+02:00</time>
      </trkpt>
      <trkpt lat="43.53986" lon="2.29701">
        <ele>209</ele>
        <time>2017-05-18T15:43:47+02:00</time>
      </trkpt>
      <trkpt lat="43.5399" lon="2.29681">
        <ele>207</ele>
        <time>2017-05-18T15:44:01+02:00</time>
      </trkpt>
      <trkpt lat="43.53993" lon="2.29668">
        <ele>206</ele>
        <time>2017-05-18T15:44:15+02:00</time>
      </trkpt>
      <trkpt lat="43.53993" lon="2.29644">
        <ele>205</ele>
        <time>2017-05-18T15:44:28+02:00</time>
      </trkpt>
      <trkpt lat="43.53993" lon="2.29629">
        <ele>205</ele>
        <time>2017-05-18T15:44:35+02:00</time>
      </trkpt>
      <trkpt lat="43.53993" lon="2.29622">
        <ele>205</ele>
        <time>2017-05-18T15:44:38+02:00</time>
      </trkpt>
      <trkpt lat="43.53993" lon="2.29615">
        <ele>204</ele>
        <time>2017-05-18T15:44:42+02:00</time>
      </trkpt>
      <trkpt lat="43.53993" lon="2.29606">
        <ele>204</ele>
        <time>2017-05-18T15:44:46+02:00</time>
      </trkpt>
      <trkpt lat="43.53992" lon="2.29595">
        <ele>204</ele>
        <time>2017-05-18T15:44:51+02:00</time>
      </trkpt>
      <trkpt lat="43.53992" lon="2.29575">
        <ele>203</ele>
        <time>2017-05-18T15:44:59+02:00</time>
      </trkpt>
      <trkpt lat="43.53996" lon="2.29547">
        <ele>202</ele>
        <time>2017-05-18T15:45:13+02:00</time>
      </trkpt>
      <trkpt lat="43.53998" lon="2.29533">
        <ele>202</ele>
        <time>2017-05-18T15:45:21+02:00</time>
      </trkpt>
      <trkpt lat="43.54003" lon="2.29516">
        <ele>202</ele>
        <time>2017-05-18T15:45:33+02:00</time>
      </trkpt>
      <trkpt lat="43.54006" lon="2.29507">
        <ele>202</ele>
        <time>2017-05-18T15:45:40+02:00</time>
      </trkpt>
      <trkpt lat="43.54008" lon="2.2948">
        <ele>202</ele>
        <time>2017-05-18T15:45:54+02:00</time>
      </trkpt>
      <trkpt lat="43.54008" lon="2.29478">
        <ele>202</ele>
        <time>2017-05-18T15:45:55+02:00</time>
      </trkpt>
      <trkpt lat="43.54004" lon="2.29441">
        <ele>200</ele>
        <time>2017-05-18T15:46:11+02:00</time>
      </trkpt>
      <trkpt lat="43.54005" lon="2.29423">
        <ele>200</ele>
        <time>2017-05-18T15:46:19+02:00</time>
      </trkpt>
      <trkpt lat="43.54012" lon="2.29396">
        <ele>201</ele>
        <time>2017-05-18T15:46:34+02:00</time>
      </trkpt>
      <trkpt lat="43.54012" lon="2.29392">
        <ele>201</ele>
        <time>2017-05-18T15:46:37+02:00</time>
      </trkpt>
      <trkpt lat="43.54012" lon="2.2938">
        <ele>200</ele>
        <time>2017-05-18T15:46:50+02:00</time>
      </trkpt>
      <trkpt lat="43.54009" lon="2.29373">
        <ele>200</ele>
        <time>2017-05-18T15:47:04+02:00</time>
      </trkpt>
      <trkpt lat="43.54009" lon="2.29372">
        <ele>200</ele>
        <time>2017-05-18T15:47:05+02:00</time>
      </trkpt>
      <trkpt lat="43.54008" lon="2.29338">
        <ele>199</ele>
        <time>2017-05-18T15:47:18+02:00</time>
      </trkpt>
      <trkpt lat="43.54008" lon="2.29319">
        <ele>199</ele>
        <time>2017-05-18T15:47:28+02:00</time>
      </trkpt>
      <trkpt lat="43.54008" lon="2.29315">
        <ele>199</ele>
        <time>2017-05-18T15:47:30+02:00</time>
      </trkpt>
      <trkpt lat="43.54007" lon="2.29289">
        <ele>199</ele>
        <time>2017-05-18T15:47:44+02:00</time>
      </trkpt>
      <trkpt lat="43.54007" lon="2.29282">
        <ele>199</ele>
        <time>2017-05-18T15:47:48+02:00</time>
      </trkpt>
      <trkpt lat="43.54006" lon="2.29256">
        <ele>198</ele>
        <time>2017-05-18T15:48:02+02:00</time>
      </trkpt>
      <trkpt lat="43.54006" lon="2.2923">
        <ele>198</ele>
        <time>2017-05-18T15:48:15+02:00</time>
      </trkpt>
      <trkpt lat="43.54006" lon="2.29206">
        <ele>198</ele>
        <time>2017-05-18T15:48:28+02:00</time>
      </trkpt>
      <trkpt lat="43.54005" lon="2.29197">
        <ele>198</ele>
        <time>2017-05-18T15:48:33+02:00</time>
      </trkpt>
      <trkpt lat="43.54005" lon="2.29195">
        <ele>198</ele>
        <time>2017-05-18T15:48:34+02:00</time>
      </trkpt>
      <trkpt lat="43.54005" lon="2.29187">
        <ele>198</ele>
        <time>2017-05-18T15:48:38+02:00</time>
      </trkpt>
      <trkpt lat="43.54004" lon="2.29157">
        <ele>198</ele>
        <time>2017-05-18T15:48:54+02:00</time>
      </trkpt>
      <trkpt lat="43.54001" lon="2.29125">
        <ele>197</ele>
        <time>2017-05-18T15:49:11+02:00</time>
      </trkpt>
      <trkpt lat="43.54" lon="2.29094">
        <ele>196</ele>
        <time>2017-05-18T15:49:28+02:00</time>
      </trkpt>
      <trkpt lat="43.53998" lon="2.29064">
        <ele>198</ele>
        <time>2017-05-18T15:49:45+02:00</time>
      </trkpt>
      <trkpt lat="43.53999" lon="2.29052">
        <ele>199</ele>
        <time>2017-05-18T15:49:52+02:00</time>
      </trkpt>
      <trkpt lat="43.53997" lon="2.29042">
        <ele>200</ele>
        <time>2017-05-18T15:49:58+02:00</time>
      </trkpt>
      <trkpt lat="43.53983" lon="2.29018">
        <ele>202</ele>
        <time>2017-05-18T15:50:15+02:00</time>
      </trkpt>
      <trkpt lat="43.5397" lon="2.28997">
        <ele>202</ele>
        <time>2017-05-18T15:50:33+02:00</time>
      </trkpt>
      <trkpt lat="43.5396" lon="2.28978">
        <ele>203</ele>
        <time>2017-05-18T15:50:48+02:00</time>
      </trkpt>
      <trkpt lat="43.53957" lon="2.28974">
        <ele>203</ele>
        <time>2017-05-18T15:50:52+02:00</time>
      </trkpt>
      <trkpt lat="43.53951" lon="2.28962">
        <ele>203</ele>
        <time>2017-05-18T15:51:02+02:00</time>
      </trkpt>
      <trkpt lat="43.53948" lon="2.28959">
        <ele>203</ele>
        <time>2017-05-18T15:51:05+02:00</time>
      </trkpt>
      <trkpt lat="43.53947" lon="2.28959">
        <ele>203</ele>
        <time>2017-05-18T15:51:06+02:00</time>
      </trkpt>
      <trkpt lat="43.53939" lon="2.2895">
        <ele>202</ele>
        <time>2017-05-18T15:51:13+02:00</time>
      </trkpt>
      <trkpt lat="43.53926" lon="2.28927">
        <ele>201</ele>
        <time>2017-05-18T15:51:27+02:00</time>
      </trkpt>
      <trkpt lat="43.53912" lon="2.28912">
        <ele>199</ele>
        <time>2017-05-18T15:51:41+02:00</time>
      </trkpt>
      <trkpt lat="43.53896" lon="2.28902">
        <ele>199</ele>
        <time>2017-05-18T15:51:55+02:00</time>
      </trkpt>
      <trkpt lat="43.53885" lon="2.28898">
        <ele>198</ele>
        <time>2017-05-18T15:52:05+02:00</time>
      </trkpt>
      <trkpt lat="43.53882" lon="2.28896">
        <ele>198</ele>
        <time>2017-05-18T15:52:08+02:00</time>
      </trkpt>
      <trkpt lat="43.53877" lon="2.28895">
        <ele>198</ele>
        <time>2017-05-18T15:52:13+02:00</time>
      </trkpt>
      <trkpt lat="43.53874" lon="2.28892">
        <ele>198</ele>
        <time>2017-05-18T15:52:16+02:00</time>
      </trkpt>
      <trkpt lat="43.53869" lon="2.2889">
        <ele>198</ele>
        <time>2017-05-18T15:52:20+02:00</time>
      </trkpt>
      <trkpt lat="43.53864" lon="2.2889">
        <ele>197</ele>
        <time>2017-05-18T15:52:24+02:00</time>
      </trkpt>
      <trkpt lat="43.53851" lon="2.28874">
        <ele>197</ele>
        <time>2017-05-18T15:52:39+02:00</time>
      </trkpt>
      <trkpt lat="43.53847" lon="2.28869">
        <ele>197</ele>
        <time>2017-05-18T15:52:42+02:00</time>
      </trkpt>
      <trkpt lat="43.53831" lon="2.28852">
        <ele>196</ele>
        <time>2017-05-18T15:52:55+02:00</time>
      </trkpt>
      <trkpt lat="43.53817" lon="2.28836">
        <ele>195</ele>
        <time>2017-05-18T15:53:09+02:00</time>
      </trkpt>
      <trkpt lat="43.53816" lon="2.28835">
        <ele>195</ele>
        <time>2017-05-18T15:53:11+02:00</time>
      </trkpt>
      <trkpt lat="43.53808" lon="2.28827">
        <ele>193</ele>
        <time>2017-05-18T15:53:18+02:00</time>
      </trkpt>
      <trkpt lat="43.53805" lon="2.2881">
        <ele>192</ele>
        <time>2017-05-18T15:53:34+02:00</time>
      </trkpt>
      <trkpt lat="43.53806" lon="2.28798">
        <ele>192</ele>
        <time>2017-05-18T15:53:44+02:00</time>
      </trkpt>
      <trkpt lat="43.53807" lon="2.28792">
        <ele>192</ele>
        <time>2017-05-18T15:53:50+02:00</time>
      </trkpt>
      <trkpt lat="43.53817" lon="2.28773">
        <ele>193</ele>
        <time>2017-05-18T15:54:04+02:00</time>
      </trkpt>
      <trkpt lat="43.53826" lon="2.28756">
        <ele>193</ele>
        <time>2017-05-18T15:54:18+02:00</time>
      </trkpt>
      <trkpt lat="43.53839" lon="2.28743">
        <ele>195</ele>
        <time>2017-05-18T15:54:30+02:00</time>
      </trkpt>
      <trkpt lat="43.53857" lon="2.28731">
        <ele>198</ele>
        <time>2017-05-18T15:54:46+02:00</time>
      </trkpt>
      <trkpt lat="43.53864" lon="2.28723">
        <ele>199</ele>
        <time>2017-05-18T15:54:55+02:00</time>
      </trkpt>
      <trkpt lat="43.53866" lon="2.28722">
        <ele>199</ele>
        <time>2017-05-18T15:54:57+02:00</time>
      </trkpt>
      <trkpt lat="43.53879" lon="2.28709">
        <ele>201</ele>
        <time>2017-05-18T15:55:14+02:00</time>
      </trkpt>
      <trkpt lat="43.53888" lon="2.28698">
        <ele>202</ele>
        <time>2017-05-18T15:55:29+02:00</time>
      </trkpt>
      <trkpt lat="43.53899" lon="2.28683">
        <ele>204</ele>
        <time>2017-05-18T15:55:43+02:00</time>
      </trkpt>
      <trkpt lat="43.53907" lon="2.28668">
        <ele>205</ele>
        <time>2017-05-18T15:55:55+02:00</time>
      </trkpt>
      <trkpt lat="43.53914" lon="2.28658">
        <ele>206</ele>
        <time>2017-05-18T15:56:05+02:00</time>
      </trkpt>
      <trkpt lat="43.53918" lon="2.2865">
        <ele>206</ele>
        <time>2017-05-18T15:56:19+02:00</time>
      </trkpt>
      <trkpt lat="43.53928" lon="2.28631">
        <ele>206</ele>
        <time>2017-05-18T15:56:35+02:00</time>
      </trkpt>
      <trkpt lat="43.53932" lon="2.2862">
        <ele>206</ele>
        <time>2017-05-18T15:56:48+02:00</time>
      </trkpt>
      <trkpt lat="43.53939" lon="2.28607">
        <ele>207</ele>
        <time>2017-05-18T15:57:02+02:00</time>
      </trkpt>
      <trkpt lat="43.53942" lon="2.28602">
        <ele>207</ele>
        <time>2017-05-18T15:57:14+02:00</time>
      </trkpt>
      <trkpt lat="43.53944" lon="2.28616">
        <ele>208</ele>
        <time>2017-05-18T15:57:30+02:00</time>
      </trkpt>
      <trkpt lat="43.53951" lon="2.28629">
        <ele>211</ele>
        <time>2017-05-18T15:57:39+02:00</time>
      </trkpt>
      <trkpt lat="43.53956" lon="2.28632">
        <ele>212</ele>
        <time>2017-05-18T15:57:40+02:00</time>
      </trkpt>
      <trkpt lat="43.53966" lon="2.28624">
        <ele>214</ele>
        <time>2017-05-18T15:57:54+02:00</time>
      </trkpt>
      <trkpt lat="43.53965" lon="2.28618">
        <ele>213</ele>
        <time>2017-05-18T15:57:58+02:00</time>
      </trkpt>
      <trkpt lat="43.53968" lon="2.28587">
        <ele>212</ele>
        <time>2017-05-18T15:58:17+02:00</time>
      </trkpt>
      <trkpt lat="43.53976" lon="2.28564">
        <ele>214</ele>
        <time>2017-05-18T15:58:35+02:00</time>
      </trkpt>
      <trkpt lat="43.53984" lon="2.28539">
        <ele>216</ele>
        <time>2017-05-18T15:58:53+02:00</time>
      </trkpt>
      <trkpt lat="43.53988" lon="2.28523">
        <ele>217</ele>
        <time>2017-05-18T15:59:05+02:00</time>
      </trkpt>
      <trkpt lat="43.53998" lon="2.285">
        <ele>219</ele>
        <time>2017-05-18T15:59:23+02:00</time>
      </trkpt>
      <trkpt lat="43.54002" lon="2.28477">
        <ele>219</ele>
        <time>2017-05-18T15:59:39+02:00</time>
      </trkpt>
      <trkpt lat="43.54003" lon="2.28466">
        <ele>219</ele>
        <time>2017-05-18T15:59:51+02:00</time>
      </trkpt>
      <trkpt lat="43.54011" lon="2.28447">
        <ele>220</ele>
        <time>2017-05-18T16:00:09+02:00</time>
      </trkpt>
      <trkpt lat="43.54017" lon="2.28424">
        <ele>221</ele>
        <time>2017-05-18T16:00:27+02:00</time>
      </trkpt>
      <trkpt lat="43.54023" lon="2.284">
        <ele>220</ele>
        <time>2017-05-18T16:00:43+02:00</time>
      </trkpt>
      <trkpt lat="43.54033" lon="2.28376">
        <ele>220</ele>
        <time>2017-05-18T16:01:00+02:00</time>
      </trkpt>
      <trkpt lat="43.54045" lon="2.2835">
        <ele>220</ele>
        <time>2017-05-18T16:01:18+02:00</time>
      </trkpt>
      <trkpt lat="43.54052" lon="2.28322">
        <ele>220</ele>
        <time>2017-05-18T16:01:36+02:00</time>
      </trkpt>
      <trkpt lat="43.54065" lon="2.28292">
        <ele>220</ele>
        <time>2017-05-18T16:01:56+02:00</time>
      </trkpt>
      <trkpt lat="43.54075" lon="2.28269">
        <ele>221</ele>
        <time>2017-05-18T16:02:12+02:00</time>
      </trkpt>
      <trkpt lat="43.54076" lon="2.28266">
        <ele>221</ele>
        <time>2017-05-18T16:02:14+02:00</time>
      </trkpt>
      <trkpt lat="43.54087" lon="2.28248">
        <ele>222</ele>
        <time>2017-05-18T16:02:30+02:00</time>
      </trkpt>
      <trkpt lat="43.54093" lon="2.28235">
        <ele>222</ele>
        <time>2017-05-18T16:02:39+02:00</time>
      </trkpt>
      <trkpt lat="43.54098" lon="2.28224">
        <ele>222</ele>
        <time>2017-05-18T16:02:46+02:00</time>
      </trkpt>
      <trkpt lat="43.54107" lon="2.28208">
        <ele>223</ele>
        <time>2017-05-18T16:02:57+02:00</time>
      </trkpt>
      <trkpt lat="43.54112" lon="2.282">
        <ele>223</ele>
        <time>2017-05-18T16:03:04+02:00</time>
      </trkpt>
      <trkpt lat="43.54123" lon="2.28168">
        <ele>223</ele>
        <time>2017-05-18T16:03:25+02:00</time>
      </trkpt>
      <trkpt lat="43.54133" lon="2.28134">
        <ele>223</ele>
        <time>2017-05-18T16:03:44+02:00</time>
      </trkpt>
      <trkpt lat="43.54142" lon="2.28105">
        <ele>224</ele>
        <time>2017-05-18T16:04:03+02:00</time>
      </trkpt>
      <trkpt lat="43.54151" lon="2.28075">
        <ele>225</ele>
        <time>2017-05-18T16:04:22+02:00</time>
      </trkpt>
      <trkpt lat="43.54159" lon="2.28051">
        <ele>224</ele>
        <time>2017-05-18T16:04:38+02:00</time>
      </trkpt>
      <trkpt lat="43.54165" lon="2.28027">
        <ele>222</ele>
        <time>2017-05-18T16:04:52+02:00</time>
      </trkpt>
      <trkpt lat="43.54167" lon="2.28002">
        <ele>219</ele>
        <time>2017-05-18T16:05:07+02:00</time>
      </trkpt>
      <trkpt lat="43.5417" lon="2.2798">
        <ele>217</ele>
        <time>2017-05-18T16:05:21+02:00</time>
      </trkpt>
      <trkpt lat="43.54169" lon="2.27972">
        <ele>216</ele>
        <time>2017-05-18T16:05:26+02:00</time>
      </trkpt>
      <trkpt lat="43.54171" lon="2.27959">
        <ele>214</ele>
        <time>2017-05-18T16:05:35+02:00</time>
      </trkpt>
      <trkpt lat="43.54172" lon="2.27953">
        <ele>214</ele>
        <time>2017-05-18T16:05:39+02:00</time>
      </trkpt>
      <trkpt lat="43.54176" lon="2.27937">
        <ele>212</ele>
        <time>2017-05-18T16:05:52+02:00</time>
      </trkpt>
      <trkpt lat="43.54176" lon="2.27934">
        <ele>212</ele>
        <time>2017-05-18T16:05:55+02:00</time>
      </trkpt>
      <trkpt lat="43.54177" lon="2.27921">
        <ele>210</ele>
        <time>2017-05-18T16:06:07+02:00</time>
      </trkpt>
      <trkpt lat="43.54179" lon="2.27907">
        <ele>208</ele>
        <time>2017-05-18T16:06:19+02:00</time>
      </trkpt>
      <trkpt lat="43.54179" lon="2.27904">
        <ele>208</ele>
        <time>2017-05-18T16:06:21+02:00</time>
      </trkpt>
      <trkpt lat="43.5418" lon="2.27902">
        <ele>208</ele>
        <time>2017-05-18T16:06:23+02:00</time>
      </trkpt>
      <trkpt lat="43.54186" lon="2.27891">
        <ele>207</ele>
        <time>2017-05-18T16:06:35+02:00</time>
      </trkpt>
      <trkpt lat="43.54196" lon="2.27888">
        <ele>207</ele>
        <time>2017-05-18T16:06:52+02:00</time>
      </trkpt>
      <trkpt lat="43.54202" lon="2.27886">
        <ele>207</ele>
        <time>2017-05-18T16:07:03+02:00</time>
      </trkpt>
      <trkpt lat="43.54207" lon="2.27885">
        <ele>207</ele>
        <time>2017-05-18T16:07:07+02:00</time>
      </trkpt>
      <trkpt lat="43.5422" lon="2.27889">
        <ele>208</ele>
        <time>2017-05-18T16:07:17+02:00</time>
      </trkpt>
      <trkpt lat="43.54238" lon="2.27898">
        <ele>210</ele>
        <time>2017-05-18T16:07:35+02:00</time>
      </trkpt>
      <trkpt lat="43.54258" lon="2.27912">
        <ele>212</ele>
        <time>2017-05-18T16:07:56+02:00</time>
      </trkpt>
      <trkpt lat="43.54276" lon="2.27922">
        <ele>214</ele>
        <time>2017-05-18T16:08:12+02:00</time>
      </trkpt>
      <trkpt lat="43.54289" lon="2.27925">
        <ele>214</ele>
        <time>2017-05-18T16:08:26+02:00</time>
      </trkpt>
      <trkpt lat="43.54298" lon="2.27923">
        <ele>214</ele>
        <time>2017-05-18T16:08:39+02:00</time>
      </trkpt>
      <trkpt lat="43.54305" lon="2.27918">
        <ele>213</ele>
        <time>2017-05-18T16:08:55+02:00</time>
      </trkpt>
      <trkpt lat="43.54308" lon="2.27921">
        <ele>213</ele>
        <time>2017-05-18T16:09:11+02:00</time>
      </trkpt>
      <trkpt lat="43.54309" lon="2.27921">
        <ele>213</ele>
        <time>2017-05-18T16:09:12+02:00</time>
      </trkpt>
      <trkpt lat="43.54315" lon="2.27921">
        <ele>213</ele>
        <time>2017-05-18T16:09:35+02:00</time>
      </trkpt>
      <trkpt lat="43.54319" lon="2.2792">
        <ele>213</ele>
        <time>2017-05-18T16:10:00+02:00</time>
      </trkpt>
      <trkpt lat="43.54323" lon="2.27921">
        <ele>213</ele>
        <time>2017-05-18T16:10:29+02:00</time>
      </trkpt>
      <trkpt lat="43.54318" lon="2.27918">
        <ele>213</ele>
        <time>2017-05-18T16:10:56+02:00</time>
      </trkpt>
      <trkpt lat="43.54314" lon="2.27919">
        <ele>213</ele>
        <time>2017-05-18T16:11:00+02:00</time>
      </trkpt>
      <trkpt lat="43.54313" lon="2.27918">
        <ele>213</ele>
        <time>2017-05-18T16:11:01+02:00</time>
      </trkpt>
      <trkpt lat="43.54311" lon="2.27916">
        <ele>213</ele>
        <time>2017-05-18T16:11:04+02:00</time>
      </trkpt>
      <trkpt lat="43.54311" lon="2.27916">
        <ele>213</ele>
        <time>2017-05-18T16:11:05+02:00</time>
      </trkpt>
      <trkpt lat="43.5431" lon="2.27917">
        <ele>213</ele>
        <time>2017-05-18T16:11:07+02:00</time>
      </trkpt>
      <trkpt lat="43.54307" lon="2.27919">
        <ele>213</ele>
        <time>2017-05-18T16:11:25+02:00</time>
      </trkpt>
      <trkpt lat="43.54309" lon="2.27923">
        <ele>213</ele>
        <time>2017-05-18T16:11:42+02:00</time>
      </trkpt>
    </trkseg>
  </trk>
</gpx>